Time,TemperatureF,DewpointF,PressureIn,WindDirection,WindDirectionDegrees,WindSpeedMPH,WindSpeedGustMPH,Humidity,HourlyPrecipIn,Conditions,Clouds,dailyrainin,SolarRadiationWatts/m^2,SoftwareType,DateUTC
2013-02-13 00:00:00,36.4,34.3,29.82,SE,124,0.0,0.0,92,0.00,,CLR,0.00,0.00,VWS V14.01,2013-02-13 08:00:00,
2013-02-13 00:03:00,37.4,35.0,29.82,SE,124,0.0,0.0,91,0.00,,CLR,0.00,0.00,VWS V14.01,2013-02-13 08:03:00,
2013-02-13 00:04:00,37.5,35.1,29.82,SE,124,0.0,0.0,91,0.00,,CLR,0.00,0.00,VWS V14.01,2013-02-13 08:04:00,
2013-02-13 00:08:00,37.4,35.0,29.82,SE,124,0.0,0.0,91,0.00,,CLR,0.00,0.00,VWS V14.01,2013-02-13 08:08:00,
2013-02-13 00:09:00,37.4,35.0,29.82,SE,124,0.0,0.0,91,0.00,,CLR,0.00,0.00,VWS V14.01,2013-02-13 08:09:00,
2013-02-13 00:10:00,36.3,34.2,29.82,SE,124,0.0,0.0,92,0.00,,CLR,0.00,0.00,VWS V14.01,2013-02-13 08:10:00,
2013-02-13 00:13:00,37.4,35.0,29.82,SE,124,0.0,0.0,91,0.00,,CLR,0.00,0.00,VWS V14.01,2013-02-13 08:13:00,
2013-02-13 00:15:00,37.3,34.9,29.82,SE,124,0.0,0.0,91,0.00,,CLR,0.00,0.00,VWS V14.01,2013-02-13 08:15:00,
2013-02-13 00:18:00,37.3,34.9,29.82,SE,124,0.0,0.0,91,0.00,,CLR,0.00,0.00,VWS V14.01,2013-02-13 08:18:00,
2013-02-13 00:19:00,37.2,34.8,29.82,SE,124,0.0,0.0,91,0.00,,CLR,0.00,0.00,VWS V14.01,2013-02-13 08:19:00,
2013-02-13 00:20:00,37.2,34.8,29.82,SE,124,0.0,0.0,91,0.00,,CLR,0.00,0.00,VWS V14.01,2013-02-13 08:20:00,
2013-02-13 00:23:00,37.2,34.8,29.82,SE,124,0.0,0.0,91,0.00,,CLR,0.00,0.00,VWS V14.01,2013-02-13 08:23:00,
2013-02-13 00:24:00,37.1,34.7,29.82,SE,124,0.0,0.0,91,0.00,,CLR,0.00,0.00,VWS V14.01,2013-02-13 08:24:00,
2013-02-13 00:25:00,37.2,34.8,29.82,SE,124,0.0,0.0,91,0.00,,CLR,0.00,0.00,VWS V14.01,2013-02-13 08:25:00,
2013-02-13 00:28:00,37.1,34.7,29.82,SE,124,0.0,0.0,91,0.00,,CLR,0.00,0.00,VWS V14.01,2013-02-13 08:28:00,
2013-02-13 00:29:00,37.1,34.7,29.82,SE,124,0.0,0.0,91,0.00,,CLR,0.00,0.00,VWS V14.01,2013-02-13 08:29:00,
2013-02-13 00:30:00,37.1,34.7,29.82,SE,124,0.0,0.0,91,0.00,,CLR,0.00,0.00,VWS V14.01,2013-02-13 08:30:00,
2013-02-13 00:33:00,37.0,34.6,29.82,SE,124,0.0,0.0,91,0.00,,CLR,0.00,0.00,VWS V14.01,2013-02-13 08:33:00,
2013-02-13 00:34:00,37.0,34.6,29.82,SE,124,0.0,0.0,91,0.00,,CLR,0.00,0.00,VWS V14.01,2013-02-13 08:34:00,
2013-02-13 00:35:00,37.0,34.6,29.82,SE,124,0.0,0.0,91,0.00,,CLR,0.00,0.00,VWS V14.01,2013-02-13 08:35:00,
2013-02-13 00:38:00,36.9,34.5,29.82,SE,124,0.0,0.0,91,0.00,,CLR,0.00,0.00,VWS V14.01,2013-02-13 08:38:00,
2013-02-13 00:39:00,36.9,34.5,29.82,SE,124,0.0,0.0,91,0.00,,CLR,0.00,0.00,VWS V14.01,2013-02-13 08:39:00,
2013-02-13 00:40:00,36.8,34.4,29.82,SE,124,0.0,0.0,91,0.00,,CLR,0.00,0.00,VWS V14.01,2013-02-13 08:40:00,
2013-02-13 00:43:00,36.7,34.3,29.82,SE,124,0.0,0.0,91,0.00,,CLR,0.00,0.00,VWS V14.01,2013-02-13 08:43:00,
2013-02-13 00:44:00,36.7,34.3,29.82,SE,124,0.0,0.0,91,0.00,,CLR,0.00,0.00,VWS V14.01,2013-02-13 08:44:00,
2013-02-13 00:45:00,36.6,34.2,29.82,SE,124,0.0,0.0,91,0.00,,CLR,0.00,0.00,VWS V14.01,2013-02-13 08:45:00,
2013-02-13 00:48:00,36.6,34.2,29.82,SE,124,0.0,0.0,91,0.00,,CLR,0.00,0.00,VWS V14.01,2013-02-13 08:48:00,
2013-02-13 00:49:00,36.6,34.2,29.82,SE,124,0.0,0.0,91,0.00,,CLR,0.00,0.00,VWS V14.01,2013-02-13 08:49:00,
2013-02-13 00:50:00,35.6,33.5,29.82,SE,124,0.0,0.0,92,0.00,,CLR,0.00,0.00,VWS V14.01,2013-02-13 08:50:00,
2013-02-13 00:51:00,36.6,34.2,29.82,SE,124,0.0,0.0,91,0.00,,CLR,0.00,0.00,VWS V14.01,2013-02-13 08:51:00,
2013-02-13 00:53:00,36.5,34.1,29.82,SE,124,0.0,0.0,91,0.00,,CLR,0.00,0.00,VWS V14.01,2013-02-13 08:53:00,
2013-02-13 00:54:00,36.5,34.1,29.82,SE,124,0.0,0.0,91,0.00,,CLR,0.00,0.00,VWS V14.01,2013-02-13 08:54:00,
2013-02-13 00:56:00,36.5,34.1,29.82,SE,124,0.0,0.0,91,0.00,,CLR,0.00,0.00,VWS V14.01,2013-02-13 08:56:00,
2013-02-13 00:58:00,36.5,34.4,29.82,SE,124,0.0,0.0,92,0.00,,CLR,0.00,0.00,VWS V14.01,2013-02-13 08:58:00,
2013-02-13 00:59:00,36.5,34.4,29.82,SE,124,0.0,0.0,92,0.00,,CLR,0.00,0.00,VWS V14.01,2013-02-13 08:59:00,
2013-02-13 01:00:00,36.4,34.3,29.82,SE,124,0.0,0.0,92,0.00,,CLR,0.00,0.00,VWS V14.01,2013-02-13 09:00:00,
2013-02-13 01:01:00,36.4,34.3,29.82,SE,124,0.0,0.0,92,0.00,,CLR,0.00,0.00,VWS V14.01,2013-02-13 09:01:00,
2013-02-13 01:03:00,36.4,34.3,29.82,SE,124,0.0,0.0,92,0.00,,CLR,0.00,0.00,VWS V14.01,2013-02-13 09:03:00,
2013-02-13 01:04:00,36.4,34.3,29.82,SE,124,0.0,0.0,92,0.00,,CLR,0.00,0.00,VWS V14.01,2013-02-13 09:04:00,
2013-02-13 01:05:00,36.4,34.3,29.82,SE,124,0.0,0.0,92,0.00,,CLR,0.00,0.00,VWS V14.01,2013-02-13 09:05:00,
2013-02-13 01:06:00,36.4,34.3,29.82,SE,124,0.0,0.0,92,0.00,,CLR,0.00,0.00,VWS V14.01,2013-02-13 09:06:00,
2013-02-13 01:08:00,36.3,34.2,29.82,SE,124,0.0,0.0,92,0.00,,CLR,0.00,0.00,VWS V14.01,2013-02-13 09:08:00,
2013-02-13 01:09:00,36.4,34.3,29.82,SE,124,0.0,0.0,92,0.00,,CLR,0.00,0.00,VWS V14.01,2013-02-13 09:09:00,
2013-02-13 01:10:00,36.3,34.2,29.82,SE,124,0.0,0.0,92,0.00,,CLR,0.00,0.00,VWS V14.01,2013-02-13 09:10:00,
2013-02-13 01:11:00,36.3,34.2,29.82,SE,124,0.0,0.0,92,0.00,,CLR,0.00,0.00,VWS V14.01,2013-02-13 09:11:00,
2013-02-13 01:13:00,36.2,34.1,29.81,SE,124,0.0,0.0,92,0.00,,CLR,0.00,0.00,VWS V14.01,2013-02-13 09:13:00,
2013-02-13 01:14:00,36.2,34.1,29.82,SE,124,0.0,0.0,92,0.00,,CLR,0.00,0.00,VWS V14.01,2013-02-13 09:14:00,
2013-02-13 01:15:00,36.2,34.1,29.82,SE,124,0.0,0.0,92,0.00,,CLR,0.00,0.00,VWS V14.01,2013-02-13 09:15:00,
2013-02-13 01:16:00,36.2,34.1,29.82,SE,124,0.0,0.0,92,0.00,,CLR,0.00,0.00,VWS V14.01,2013-02-13 09:16:00,
2013-02-13 01:18:00,36.1,34.0,29.81,SE,124,0.0,0.0,92,0.00,,CLR,0.00,0.00,VWS V14.01,2013-02-13 09:18:00,
2013-02-13 01:19:00,36.1,34.0,29.82,SE,124,0.0,0.0,92,0.00,,CLR,0.00,0.00,VWS V14.01,2013-02-13 09:19:00,
2013-02-13 01:20:00,36.1,34.0,29.82,SE,124,0.0,0.0,92,0.00,,CLR,0.00,0.00,VWS V14.01,2013-02-13 09:20:00,
2013-02-13 01:21:00,36.0,33.9,29.82,SE,124,0.0,0.0,92,0.00,,CLR,0.00,0.00,VWS V14.01,2013-02-13 09:21:00,
2013-02-13 01:24:00,36.0,33.9,29.82,SE,124,0.0,0.0,92,0.00,,CLR,0.00,0.00,VWS V14.01,2013-02-13 09:24:00,
2013-02-13 01:25:00,36.0,33.9,29.82,SE,124,0.0,0.0,92,0.00,,CLR,0.00,0.00,VWS V14.01,2013-02-13 09:25:00,
2013-02-13 01:26:00,36.0,33.9,29.82,SE,124,0.0,0.0,92,0.00,,CLR,0.00,0.00,VWS V14.01,2013-02-13 09:26:00,
2013-02-13 01:29:00,36.0,33.9,29.82,SE,124,0.0,0.0,92,0.00,,CLR,0.00,0.00,VWS V14.01,2013-02-13 09:29:00,
2013-02-13 01:30:00,36.0,33.9,29.82,SE,124,0.0,0.0,92,0.00,,CLR,0.00,0.00,VWS V14.01,2013-02-13 09:30:00,
2013-02-13 01:31:00,36.0,33.9,29.82,SE,124,0.0,0.0,92,0.00,,CLR,0.00,0.00,VWS V14.01,2013-02-13 09:31:00,
2013-02-13 01:34:00,35.9,33.8,29.82,SE,124,0.0,0.0,92,0.00,,CLR,0.00,0.00,VWS V14.01,2013-02-13 09:34:00,
2013-02-13 01:35:00,35.9,33.8,29.82,SE,124,0.0,0.0,92,0.00,,CLR,0.00,0.00,VWS V14.01,2013-02-13 09:35:00,
2013-02-13 01:36:00,35.9,33.8,29.82,SE,124,0.0,0.0,92,0.00,,CLR,0.00,0.00,VWS V14.01,2013-02-13 09:36:00,
2013-02-13 01:39:00,35.8,33.7,29.82,SE,124,0.0,0.0,92,0.00,,CLR,0.00,0.00,VWS V14.01,2013-02-13 09:39:00,
2013-02-13 01:40:00,35.8,33.7,29.82,SE,124,0.0,0.0,92,0.00,,CLR,0.00,0.00,VWS V14.01,2013-02-13 09:40:00,
2013-02-13 01:41:00,35.8,33.7,29.81,SE,124,0.0,0.0,92,0.00,,CLR,0.00,0.00,VWS V14.01,2013-02-13 09:41:00,
2013-02-13 01:44:00,35.7,33.6,29.82,SE,124,0.0,0.0,92,0.00,,CLR,0.00,0.00,VWS V14.01,2013-02-13 09:44:00,
2013-02-13 01:45:00,35.7,33.6,29.82,SE,124,0.0,0.0,92,0.00,,CLR,0.00,0.00,VWS V14.01,2013-02-13 09:45:00,
2013-02-13 01:47:00,35.7,33.6,29.82,SE,124,0.0,0.0,92,0.00,,CLR,0.00,0.00,VWS V14.01,2013-02-13 09:47:00,
2013-02-13 01:50:00,35.6,33.5,29.82,SE,124,0.0,0.0,92,0.00,,CLR,0.00,0.00,VWS V14.01,2013-02-13 09:50:00,
2013-02-13 01:52:00,35.6,33.5,29.81,SE,124,0.0,0.0,92,0.00,,CLR,0.00,0.00,VWS V14.01,2013-02-13 09:52:00,
2013-02-13 01:55:00,35.5,33.4,29.81,SE,124,0.0,0.0,92,0.00,,CLR,0.00,0.00,VWS V14.01,2013-02-13 09:55:00,
2013-02-13 01:57:00,35.5,33.4,29.81,SE,124,0.0,0.0,92,0.00,,CLR,0.00,0.00,VWS V14.01,2013-02-13 09:57:00,
2013-02-13 02:00:00,35.5,33.4,29.81,SE,124,0.0,0.0,92,0.00,,CLR,0.00,0.00,VWS V14.01,2013-02-13 10:00:00,
2013-02-13 02:02:00,35.5,33.4,29.81,SE,124,0.0,0.0,92,0.00,,CLR,0.00,0.00,VWS V14.01,2013-02-13 10:02:00,
2013-02-13 02:05:00,35.4,33.3,29.81,SE,124,0.0,0.0,92,0.00,,CLR,0.00,0.00,VWS V14.01,2013-02-13 10:05:00,
2013-02-13 02:06:00,35.4,33.3,29.81,SE,124,0.0,0.0,92,0.00,,CLR,0.00,0.00,VWS V14.01,2013-02-13 10:06:00,
2013-02-13 02:07:00,35.4,33.3,29.81,SE,124,0.0,0.0,92,0.00,,CLR,0.00,0.00,VWS V14.01,2013-02-13 10:07:00,
2013-02-13 02:10:00,35.4,33.3,29.81,SE,124,0.0,0.0,92,0.00,,CLR,0.00,0.00,VWS V14.01,2013-02-13 10:10:00,
2013-02-13 02:11:00,35.3,33.2,29.81,SE,124,0.0,0.0,92,0.00,,CLR,0.00,0.00,VWS V14.01,2013-02-13 10:11:00,
2013-02-13 02:12:00,35.3,33.2,29.81,SE,124,0.0,0.0,92,0.00,,CLR,0.00,0.00,VWS V14.01,2013-02-13 10:12:00,
2013-02-13 02:15:00,35.3,33.2,29.81,SE,124,0.0,0.0,92,0.00,,CLR,0.00,0.00,VWS V14.01,2013-02-13 10:15:00,
2013-02-13 02:16:00,35.3,33.2,29.81,SE,124,0.0,0.0,92,0.00,,CLR,0.00,0.00,VWS V14.01,2013-02-13 10:16:00,
2013-02-13 02:17:00,35.3,33.2,29.81,SE,124,0.0,0.0,92,0.00,,CLR,0.00,0.00,VWS V14.01,2013-02-13 10:17:00,
2013-02-13 02:20:00,35.3,33.2,29.81,SE,124,0.0,0.0,92,0.00,,CLR,0.00,0.00,VWS V14.01,2013-02-13 10:20:00,
2013-02-13 02:21:00,35.3,33.2,29.81,SE,124,0.0,0.0,92,0.00,,CLR,0.00,0.00,VWS V14.01,2013-02-13 10:21:00,
2013-02-13 02:22:00,35.3,33.2,29.81,SE,124,0.0,0.0,92,0.00,,CLR,0.00,0.00,VWS V14.01,2013-02-13 10:22:00,
2013-02-13 02:25:00,35.3,33.5,29.81,SE,124,0.0,0.0,93,0.00,,CLR,0.00,0.00,VWS V14.01,2013-02-13 10:25:00,
2013-02-13 02:26:00,35.3,33.5,29.81,SE,124,0.0,0.0,93,0.00,,CLR,0.00,0.00,VWS V14.01,2013-02-13 10:26:00,
2013-02-13 02:27:00,35.2,33.4,29.81,SE,124,0.0,0.0,93,0.00,,CLR,0.00,0.00,VWS V14.01,2013-02-13 10:27:00,
2013-02-13 02:30:00,35.2,33.4,29.81,SE,124,0.0,0.0,93,0.00,,CLR,0.00,0.00,VWS V14.01,2013-02-13 10:30:00,
2013-02-13 02:31:00,35.2,33.4,29.81,SE,124,0.0,0.0,93,0.00,,CLR,0.00,0.00,VWS V14.01,2013-02-13 10:31:00,
2013-02-13 02:32:00,35.2,33.4,29.81,SE,124,0.0,0.0,93,0.00,,CLR,0.00,0.00,VWS V14.01,2013-02-13 10:32:00,
2013-02-13 02:36:00,35.1,33.3,29.81,SE,124,0.0,0.0,93,0.00,,CLR,0.00,0.00,VWS V14.01,2013-02-13 10:36:00,
2013-02-13 02:37:00,35.1,33.3,29.81,SE,124,0.0,0.0,93,0.00,,CLR,0.00,0.00,VWS V14.01,2013-02-13 10:37:00,
2013-02-13 02:38:00,35.1,33.3,29.81,SE,124,0.0,0.0,93,0.00,,CLR,0.00,0.00,VWS V14.01,2013-02-13 10:38:00,
2013-02-13 02:40:00,34.7,32.9,29.80,SE,124,0.0,0.0,93,0.00,,CLR,0.00,0.00,VWS V14.01,2013-02-13 10:40:00,
2013-02-13 02:41:00,35.1,33.3,29.81,SE,124,0.0,0.0,93,0.00,,CLR,0.00,0.00,VWS V14.01,2013-02-13 10:41:00,
2013-02-13 02:42:00,35.1,33.3,29.81,SE,124,0.0,0.0,93,0.00,,CLR,0.00,0.00,VWS V14.01,2013-02-13 10:42:00,
2013-02-13 02:43:00,35.1,33.3,29.81,SE,124,0.0,0.0,93,0.00,,CLR,0.00,0.00,VWS V14.01,2013-02-13 10:43:00,
2013-02-13 02:46:00,35.0,33.2,29.80,SE,124,0.0,0.0,93,0.00,,CLR,0.00,0.00,VWS V14.01,2013-02-13 10:46:00,
2013-02-13 02:47:00,35.0,33.2,29.80,SE,124,0.0,0.0,93,0.00,,CLR,0.00,0.00,VWS V14.01,2013-02-13 10:47:00,
2013-02-13 02:48:00,35.0,33.2,29.80,SE,124,0.0,0.0,93,0.00,,CLR,0.00,0.00,VWS V14.01,2013-02-13 10:48:00,
2013-02-13 02:50:00,34.3,32.5,29.80,SE,124,0.0,0.0,93,0.00,,CLR,0.00,0.00,VWS V14.01,2013-02-13 10:50:00,
2013-02-13 02:51:00,34.9,33.1,29.80,SE,124,0.0,0.0,93,0.00,,CLR,0.00,0.00,VWS V14.01,2013-02-13 10:51:00,
2013-02-13 02:52:00,34.9,33.1,29.80,SE,124,0.0,0.0,93,0.00,,CLR,0.00,0.00,VWS V14.01,2013-02-13 10:52:00,
2013-02-13 02:53:00,34.9,33.1,29.80,SE,124,0.0,0.0,93,0.00,,CLR,0.00,0.00,VWS V14.01,2013-02-13 10:53:00,
2013-02-13 02:56:00,34.9,33.1,29.80,SE,124,0.0,0.0,93,0.00,,CLR,0.00,0.00,VWS V14.01,2013-02-13 10:56:00,
2013-02-13 02:57:00,34.8,33.0,29.80,SE,124,0.0,0.0,93,0.00,,CLR,0.00,0.00,VWS V14.01,2013-02-13 10:57:00,
2013-02-13 02:58:00,34.8,33.0,29.80,SE,124,0.0,0.0,93,0.00,,CLR,0.00,0.00,VWS V14.01,2013-02-13 10:58:00,
2013-02-13 03:00:00,34.1,32.3,29.80,SE,124,0.0,0.0,93,0.00,,CLR,0.00,0.00,VWS V14.01,2013-02-13 11:00:00,
2013-02-13 03:01:00,34.8,33.0,29.80,SE,124,0.0,0.0,93,0.00,,CLR,0.00,0.00,VWS V14.01,2013-02-13 11:01:00,
2013-02-13 03:02:00,34.8,33.0,29.80,SE,124,0.0,0.0,93,0.00,,CLR,0.00,0.00,VWS V14.01,2013-02-13 11:02:00,
2013-02-13 03:03:00,34.8,33.0,29.80,SE,124,0.0,0.0,93,0.00,,CLR,0.00,0.00,VWS V14.01,2013-02-13 11:03:00,
2013-02-13 03:06:00,34.8,33.0,29.80,SE,124,0.0,0.0,93,0.00,,CLR,0.00,0.00,VWS V14.01,2013-02-13 11:06:00,
2013-02-13 03:07:00,34.9,33.1,29.80,SE,124,0.0,0.0,93,0.00,,CLR,0.00,0.00,VWS V14.01,2013-02-13 11:07:00,
2013-02-13 03:08:00,34.9,33.1,29.80,SE,124,0.0,0.0,93,0.00,,CLR,0.00,0.00,VWS V14.01,2013-02-13 11:08:00,
2013-02-13 03:10:00,34.3,32.8,29.80,SE,124,0.0,0.0,94,0.00,,CLR,0.00,0.00,VWS V14.01,2013-02-13 11:10:00,
2013-02-13 03:11:00,34.9,33.1,29.80,SE,124,0.0,0.0,93,0.00,,CLR,0.00,0.00,VWS V14.01,2013-02-13 11:11:00,
2013-02-13 03:12:00,34.9,33.1,29.80,SE,124,0.0,0.0,93,0.00,,CLR,0.00,0.00,VWS V14.01,2013-02-13 11:12:00,
2013-02-13 03:13:00,34.9,33.1,29.80,SE,124,0.0,0.0,93,0.00,,CLR,0.00,0.00,VWS V14.01,2013-02-13 11:13:00,
2013-02-13 03:16:00,35.0,33.2,29.80,SE,124,0.0,0.0,93,0.00,,CLR,0.00,0.00,VWS V14.01,2013-02-13 11:16:00,
2013-02-13 03:17:00,35.0,33.2,29.80,SE,124,0.0,0.0,93,0.00,,CLR,0.00,0.00,VWS V14.01,2013-02-13 11:17:00,
2013-02-13 03:18:00,35.0,33.2,29.80,SE,124,0.0,0.0,93,0.00,,CLR,0.00,0.00,VWS V14.01,2013-02-13 11:18:00,
2013-02-13 03:19:00,35.0,33.2,29.80,SE,124,0.0,0.0,93,0.00,,CLR,0.00,0.00,VWS V14.01,2013-02-13 11:19:00,
2013-02-13 03:20:00,34.3,32.8,29.80,SE,124,0.0,0.0,94,0.00,,CLR,0.00,0.00,VWS V14.01,2013-02-13 11:20:00,
2013-02-13 03:21:00,35.1,33.3,29.80,SE,124,0.0,0.0,93,0.00,,CLR,0.00,0.00,VWS V14.01,2013-02-13 11:21:00,
2013-02-13 03:22:00,35.1,33.3,29.80,SE,124,0.0,0.0,93,0.00,,CLR,0.00,0.00,VWS V14.01,2013-02-13 11:22:00,
2013-02-13 03:23:00,35.1,33.3,29.80,SE,124,0.0,0.0,93,0.00,,CLR,0.00,0.00,VWS V14.01,2013-02-13 11:23:00,
2013-02-13 03:24:00,35.1,33.3,29.80,SE,124,0.0,0.0,93,0.00,,CLR,0.00,0.00,VWS V14.01,2013-02-13 11:24:00,
2013-02-13 03:27:00,35.1,33.3,29.80,SE,124,0.0,0.0,93,0.00,,CLR,0.00,0.00,VWS V14.01,2013-02-13 11:27:00,
2013-02-13 03:28:00,35.0,33.2,29.80,SE,124,0.0,0.0,93,0.00,,CLR,0.00,0.00,VWS V14.01,2013-02-13 11:28:00,
2013-02-13 03:29:00,35.0,33.2,29.80,SE,124,0.0,0.0,93,0.00,,CLR,0.00,0.00,VWS V14.01,2013-02-13 11:29:00,
2013-02-13 03:30:00,34.5,33.0,29.80,SE,124,0.0,0.0,94,0.00,,CLR,0.00,0.00,VWS V14.01,2013-02-13 11:30:00,
2013-02-13 03:32:00,35.0,33.2,29.80,SE,124,0.0,0.0,93,0.00,,CLR,0.00,0.00,VWS V14.01,2013-02-13 11:32:00,
2013-02-13 03:33:00,34.9,33.1,29.80,SE,124,0.0,0.0,93,0.00,,CLR,0.00,0.00,VWS V14.01,2013-02-13 11:33:00,
2013-02-13 03:34:00,34.9,33.1,29.80,SE,124,0.0,0.0,93,0.00,,CLR,0.00,0.00,VWS V14.01,2013-02-13 11:34:00,
2013-02-13 03:37:00,34.8,33.0,29.80,SE,124,0.0,0.0,93,0.00,,CLR,0.00,0.00,VWS V14.01,2013-02-13 11:37:00,
2013-02-13 03:39:00,34.7,32.9,29.80,SE,124,0.0,0.0,93,0.00,,CLR,0.00,0.00,VWS V14.01,2013-02-13 11:39:00,
2013-02-13 03:40:00,34.6,33.0,29.80,SE,124,0.0,0.0,94,0.00,,CLR,0.00,0.00,VWS V14.01,2013-02-13 11:40:00,
2013-02-13 03:42:00,34.6,32.8,29.80,SE,124,0.0,0.0,93,0.00,,CLR,0.00,0.00,VWS V14.01,2013-02-13 11:42:00,
2013-02-13 03:44:00,34.5,32.7,29.80,SE,124,0.0,0.0,93,0.00,,CLR,0.00,0.00,VWS V14.01,2013-02-13 11:44:00,
2013-02-13 03:47:00,34.4,32.6,29.80,SE,124,0.0,0.0,93,0.00,,CLR,0.00,0.00,VWS V14.01,2013-02-13 11:47:00,
2013-02-13 03:48:00,34.4,32.6,29.80,SE,124,0.0,0.0,93,0.00,,CLR,0.00,0.00,VWS V14.01,2013-02-13 11:48:00,
2013-02-13 03:49:00,34.3,32.5,29.80,SE,124,0.0,0.0,93,0.00,,CLR,0.00,0.00,VWS V14.01,2013-02-13 11:49:00,
2013-02-13 03:50:00,34.3,32.8,29.80,SE,124,0.0,0.0,94,0.00,,CLR,0.00,0.00,VWS V14.01,2013-02-13 11:50:00,
2013-02-13 03:52:00,34.2,32.4,29.80,SE,124,0.0,0.0,93,0.00,,CLR,0.00,0.00,VWS V14.01,2013-02-13 11:52:00,
2013-02-13 03:53:00,34.2,32.4,29.80,SE,124,0.0,0.0,93,0.00,,CLR,0.00,0.00,VWS V14.01,2013-02-13 11:53:00,
2013-02-13 03:54:00,34.2,32.4,29.80,SE,124,0.0,0.0,93,0.00,,CLR,0.00,0.00,VWS V14.01,2013-02-13 11:54:00,
2013-02-13 03:57:00,34.1,32.3,29.80,SE,124,0.0,0.0,93,0.00,,CLR,0.00,0.00,VWS V14.01,2013-02-13 11:57:00,
2013-02-13 03:58:00,34.1,32.3,29.80,SE,124,0.0,0.0,93,0.00,,CLR,0.00,0.00,VWS V14.01,2013-02-13 11:58:00,
2013-02-13 03:59:00,34.1,32.3,29.80,SE,124,0.0,0.0,93,0.00,,CLR,0.00,0.00,VWS V14.01,2013-02-13 11:59:00,
2013-02-13 04:00:00,33.9,32.1,29.80,SE,124,0.0,0.0,93,0.00,,CLR,0.00,0.00,VWS V14.01,2013-02-13 12:00:00,
2013-02-13 04:02:00,34.2,32.4,29.80,SE,124,0.0,0.0,93,0.00,,CLR,0.00,0.00,VWS V14.01,2013-02-13 12:02:00,
2013-02-13 04:03:00,34.2,32.4,29.80,SE,124,0.0,0.0,93,0.00,,CLR,0.00,0.00,VWS V14.01,2013-02-13 12:03:00,
2013-02-13 04:04:00,34.2,32.7,29.80,SE,124,0.0,0.0,94,0.00,,CLR,0.00,0.00,VWS V14.01,2013-02-13 12:04:00,
2013-02-13 04:07:00,34.3,32.8,29.80,SE,124,0.0,0.0,94,0.00,,CLR,0.00,0.00,VWS V14.01,2013-02-13 12:07:00,
2013-02-13 04:08:00,34.3,32.8,29.80,SE,124,0.0,0.0,94,0.00,,CLR,0.00,0.00,VWS V14.01,2013-02-13 12:08:00,
2013-02-13 04:09:00,34.3,32.8,29.80,SE,124,0.0,0.0,94,0.00,,CLR,0.00,0.00,VWS V14.01,2013-02-13 12:09:00,
2013-02-13 04:10:00,33.7,32.2,29.80,SE,124,0.0,0.0,94,0.00,,CLR,0.00,0.00,VWS V14.01,2013-02-13 12:10:00,
2013-02-13 04:13:00,34.3,32.5,29.80,SE,124,0.0,0.0,93,0.00,,CLR,0.00,0.00,VWS V14.01,2013-02-13 12:13:00,
2013-02-13 04:14:00,34.3,32.5,29.80,SE,124,0.0,0.0,93,0.00,,CLR,0.00,0.00,VWS V14.01,2013-02-13 12:14:00,
2013-02-13 04:18:00,34.3,32.8,29.80,SE,124,0.0,0.0,94,0.00,,CLR,0.00,0.00,VWS V14.01,2013-02-13 12:18:00,
2013-02-13 04:19:00,34.3,32.8,29.80,SE,124,0.0,0.0,94,0.00,,CLR,0.00,0.00,VWS V14.01,2013-02-13 12:19:00,
2013-02-13 04:20:00,33.5,32.0,29.80,SE,124,0.0,0.0,94,0.00,,CLR,0.00,0.00,VWS V14.01,2013-02-13 12:20:00,
2013-02-13 04:23:00,34.4,32.9,29.80,SE,124,0.0,0.0,94,0.00,,CLR,0.00,0.00,VWS V14.01,2013-02-13 12:23:00,
2013-02-13 04:24:00,34.4,32.9,29.80,SE,124,0.0,0.0,94,0.00,,CLR,0.00,0.00,VWS V14.01,2013-02-13 12:24:00,
2013-02-13 04:28:00,34.4,32.9,29.80,SE,124,0.0,0.0,94,0.00,,CLR,0.00,0.00,VWS V14.01,2013-02-13 12:28:00,
2013-02-13 04:29:00,34.4,32.9,29.80,SE,124,0.0,0.0,94,0.00,,CLR,0.00,0.00,VWS V14.01,2013-02-13 12:29:00,
2013-02-13 04:30:00,33.5,32.0,29.80,SE,124,0.0,0.0,94,0.00,,CLR,0.00,0.00,VWS V14.01,2013-02-13 12:30:00,
2013-02-13 04:33:00,34.5,33.0,29.80,SE,124,0.0,0.0,94,0.00,,CLR,0.00,0.00,VWS V14.01,2013-02-13 12:33:00,
2013-02-13 04:34:00,34.5,33.0,29.80,SE,124,0.0,0.0,94,0.00,,CLR,0.00,0.00,VWS V14.01,2013-02-13 12:34:00,
2013-02-13 04:38:00,34.6,33.0,29.80,SE,124,0.0,0.0,94,0.00,,CLR,0.00,0.00,VWS V14.01,2013-02-13 12:38:00,
2013-02-13 04:39:00,34.6,33.0,29.80,SE,124,0.0,0.0,94,0.00,,CLR,0.00,0.00,VWS V14.01,2013-02-13 12:39:00,
2013-02-13 04:40:00,34.6,33.0,29.80,SE,124,0.0,0.0,94,0.00,,CLR,0.00,0.00,VWS V14.01,2013-02-13 12:40:00,
2013-02-13 04:44:00,34.5,33.0,29.80,SE,124,0.0,0.0,94,0.00,,CLR,0.00,0.00,VWS V14.01,2013-02-13 12:44:00,
2013-02-13 04:45:00,34.5,33.0,29.80,SE,124,0.0,0.0,94,0.00,,CLR,0.00,0.00,VWS V14.01,2013-02-13 12:45:00,
2013-02-13 04:49:00,34.3,32.8,29.80,SE,124,0.0,0.0,94,0.00,,CLR,0.00,0.00,VWS V14.01,2013-02-13 12:49:00,
2013-02-13 04:50:00,34.3,32.8,29.80,SE,124,0.0,0.0,94,0.00,,CLR,0.00,0.00,VWS V14.01,2013-02-13 12:50:00,
2013-02-13 04:54:00,34.1,32.3,29.80,SE,124,0.0,0.0,93,0.00,,CLR,0.00,0.00,VWS V14.01,2013-02-13 12:54:00,
2013-02-13 04:55:00,34.1,32.3,29.80,SE,124,0.0,0.0,93,0.00,,CLR,0.00,0.00,VWS V14.01,2013-02-13 12:55:00,
2013-02-13 04:59:00,33.9,32.1,29.80,SE,124,0.0,0.0,93,0.00,,CLR,0.00,0.00,VWS V14.01,2013-02-13 12:59:00,
2013-02-13 05:00:00,33.9,32.1,29.80,SE,124,0.0,0.0,93,0.00,,CLR,0.00,0.00,VWS V14.01,2013-02-13 13:00:00,
2013-02-13 05:01:00,33.9,32.1,29.80,SE,124,0.0,0.0,93,0.00,,CLR,0.00,0.00,VWS V14.01,2013-02-13 13:01:00,
2013-02-13 05:04:00,33.8,32.0,29.80,SE,124,0.0,0.0,93,0.00,,CLR,0.00,0.00,VWS V14.01,2013-02-13 13:04:00,
2013-02-13 05:05:00,33.8,32.3,29.80,SE,124,0.0,0.0,94,0.00,,CLR,0.00,0.00,VWS V14.01,2013-02-13 13:05:00,
2013-02-13 05:09:00,33.7,32.2,29.80,SE,124,0.0,0.0,94,0.00,,CLR,0.00,0.00,VWS V14.01,2013-02-13 13:09:00,
2013-02-13 05:10:00,33.8,32.3,29.80,SE,124,0.0,0.0,94,0.00,,CLR,0.00,0.00,VWS V14.01,2013-02-13 13:10:00,
2013-02-13 05:11:00,33.8,32.3,29.80,SE,124,0.0,0.0,94,0.00,,CLR,0.00,0.00,VWS V14.01,2013-02-13 13:11:00,
2013-02-13 05:15:00,33.7,32.2,29.80,SE,124,0.0,0.0,94,0.00,,CLR,0.00,0.00,VWS V14.01,2013-02-13 13:15:00,
2013-02-13 05:16:00,33.6,32.1,29.80,SE,124,0.0,0.0,94,0.00,,CLR,0.00,0.00,VWS V14.01,2013-02-13 13:16:00,
2013-02-13 05:20:00,33.5,32.0,29.80,SE,124,0.0,0.0,94,0.00,,CLR,0.00,0.00,VWS V14.01,2013-02-13 13:20:00,
2013-02-13 05:21:00,33.5,32.0,29.80,SE,124,0.0,0.0,94,0.00,,CLR,0.00,0.00,VWS V14.01,2013-02-13 13:21:00,
2013-02-13 05:25:00,33.5,32.0,29.80,SE,124,0.0,0.0,94,0.00,,CLR,0.00,0.00,VWS V14.01,2013-02-13 13:25:00,
2013-02-13 05:26:00,33.5,32.0,29.80,SE,124,0.0,0.0,94,0.00,,CLR,0.00,0.00,VWS V14.01,2013-02-13 13:26:00,
2013-02-13 05:30:00,33.5,32.0,29.80,SE,124,0.0,0.0,94,0.00,,CLR,0.00,0.00,VWS V14.01,2013-02-13 13:30:00,
2013-02-13 05:31:00,33.5,32.0,29.80,SE,124,0.0,0.0,94,0.00,,CLR,0.00,0.00,VWS V14.01,2013-02-13 13:31:00,
2013-02-13 05:35:00,33.4,31.9,29.80,SE,124,0.0,0.0,94,0.00,,CLR,0.00,0.00,VWS V14.01,2013-02-13 13:35:00,
2013-02-13 05:36:00,33.4,31.9,29.79,SE,124,0.0,0.0,94,0.00,,CLR,0.00,0.00,VWS V14.01,2013-02-13 13:36:00,
2013-02-13 05:40:00,33.3,31.8,29.79,SE,124,0.0,0.0,94,0.00,,CLR,0.00,0.00,VWS V14.01,2013-02-13 13:40:00,
2013-02-13 05:41:00,33.3,31.8,29.79,SE,124,0.0,0.0,94,0.00,,CLR,0.00,0.00,VWS V14.01,2013-02-13 13:41:00,
2013-02-13 05:45:00,33.2,31.7,29.79,SE,124,0.0,0.0,94,0.00,,CLR,0.00,0.00,VWS V14.01,2013-02-13 13:45:00,
2013-02-13 05:46:00,33.2,31.7,29.79,SE,124,0.0,0.0,94,0.00,,CLR,0.00,0.00,VWS V14.01,2013-02-13 13:46:00,
2013-02-13 05:50:00,33.2,31.7,29.79,SE,124,0.0,0.0,94,0.00,,CLR,0.00,0.00,VWS V14.01,2013-02-13 13:50:00,
2013-02-13 05:51:00,33.2,31.7,29.79,SE,124,0.0,0.0,94,0.00,,CLR,0.00,0.00,VWS V14.01,2013-02-13 13:51:00,
2013-02-13 05:52:00,33.2,31.7,29.79,SE,124,0.0,0.0,94,0.00,,CLR,0.00,0.00,VWS V14.01,2013-02-13 13:52:00,
2013-02-13 05:55:00,33.1,31.6,29.79,SE,124,0.0,0.0,94,0.00,,CLR,0.00,0.00,VWS V14.01,2013-02-13 13:55:00,
2013-02-13 05:56:00,33.1,31.6,29.79,SE,124,0.0,0.0,94,0.00,,CLR,0.00,0.00,VWS V14.01,2013-02-13 13:56:00,
2013-02-13 06:00:00,33.0,31.5,29.79,SE,124,0.0,0.0,94,0.00,,CLR,0.00,0.00,VWS V14.01,2013-02-13 14:00:00,
2013-02-13 06:01:00,33.0,31.5,29.79,SE,124,0.0,0.0,94,0.00,,CLR,0.00,0.00,VWS V14.01,2013-02-13 14:01:00,
2013-02-13 06:02:00,33.0,31.5,29.79,SE,124,0.0,0.0,94,0.00,,CLR,0.00,0.00,VWS V14.01,2013-02-13 14:02:00,
2013-02-13 06:05:00,32.9,31.4,29.79,SE,124,0.0,0.0,94,0.00,,CLR,0.00,0.00,VWS V14.01,2013-02-13 14:05:00,
2013-02-13 06:06:00,32.9,31.4,29.79,SE,124,0.0,0.0,94,0.00,,CLR,0.00,0.00,VWS V14.01,2013-02-13 14:06:00,
2013-02-13 06:07:00,32.8,31.3,29.79,SE,124,0.0,0.0,94,0.00,,CLR,0.00,0.00,VWS V14.01,2013-02-13 14:07:00,
2013-02-13 06:10:00,32.8,31.3,29.79,SE,124,0.0,0.0,94,0.00,,CLR,0.00,0.00,VWS V14.01,2013-02-13 14:10:00,
2013-02-13 06:11:00,32.8,31.3,29.79,SE,124,0.0,0.0,94,0.00,,CLR,0.00,0.00,VWS V14.01,2013-02-13 14:11:00,
2013-02-13 06:12:00,32.8,31.3,29.79,SE,124,0.0,0.0,94,0.00,,CLR,0.00,0.00,VWS V14.01,2013-02-13 14:12:00,
2013-02-13 06:15:00,32.8,31.3,29.80,SE,124,0.0,0.0,94,0.00,,CLR,0.00,0.00,VWS V14.01,2013-02-13 14:15:00,
2013-02-13 06:16:00,32.8,31.3,29.80,SE,124,0.0,0.0,94,0.00,,CLR,0.00,0.00,VWS V14.01,2013-02-13 14:16:00,
2013-02-13 06:17:00,32.8,31.3,29.79,SE,124,0.0,0.0,94,0.00,,CLR,0.00,0.00,VWS V14.01,2013-02-13 14:17:00,
2013-02-13 06:20:00,32.8,31.3,29.80,SE,124,0.0,0.0,94,0.00,,CLR,0.00,0.00,VWS V14.01,2013-02-13 14:20:00,
2013-02-13 06:21:00,32.8,31.3,29.80,SE,124,0.0,0.0,94,0.00,,CLR,0.00,0.00,VWS V14.01,2013-02-13 14:21:00,
2013-02-13 06:22:00,32.7,31.2,29.80,SE,124,0.0,0.0,94,0.00,,CLR,0.00,0.00,VWS V14.01,2013-02-13 14:22:00,
2013-02-13 06:25:00,32.8,31.3,29.80,SE,124,0.0,0.0,94,0.00,,CLR,0.00,0.00,VWS V14.01,2013-02-13 14:25:00,
2013-02-13 06:26:00,32.8,31.3,29.80,SE,124,0.0,0.0,94,0.00,,CLR,0.00,0.00,VWS V14.01,2013-02-13 14:26:00,
2013-02-13 06:27:00,32.8,31.3,29.80,SE,124,0.0,0.0,94,0.00,,CLR,0.00,0.00,VWS V14.01,2013-02-13 14:27:00,
2013-02-13 06:30:00,32.8,31.3,29.80,SE,124,0.0,0.0,94,0.00,,CLR,0.00,0.00,VWS V14.01,2013-02-13 14:30:00,
2013-02-13 06:31:00,32.8,31.3,29.80,SE,124,0.0,0.0,94,0.00,,CLR,0.00,0.00,VWS V14.01,2013-02-13 14:31:00,
2013-02-13 06:32:00,32.8,31.3,29.80,SE,124,0.0,0.0,94,0.00,,CLR,0.00,0.00,VWS V14.01,2013-02-13 14:32:00,
2013-02-13 06:35:00,32.8,31.3,29.80,SE,124,0.0,0.0,94,0.00,,CLR,0.00,0.00,VWS V14.01,2013-02-13 14:35:00,
2013-02-13 06:36:00,32.9,31.4,29.80,SE,124,0.0,0.0,94,0.00,,CLR,0.00,0.00,VWS V14.01,2013-02-13 14:36:00,
2013-02-13 06:37:00,32.9,31.4,29.80,SE,124,0.0,0.0,94,0.00,,CLR,0.00,0.00,VWS V14.01,2013-02-13 14:37:00,
2013-02-13 06:40:00,32.8,31.3,29.80,SE,124,0.0,0.0,94,0.00,,CLR,0.00,0.00,VWS V14.01,2013-02-13 14:40:00,
2013-02-13 06:41:00,32.9,31.4,29.80,SE,124,0.0,0.0,94,0.00,,CLR,0.00,0.00,VWS V14.01,2013-02-13 14:41:00,
2013-02-13 06:42:00,32.8,31.3,29.80,SE,124,0.0,0.0,94,0.00,,CLR,0.00,0.00,VWS V14.01,2013-02-13 14:42:00,
2013-02-13 06:45:00,32.8,31.3,29.80,SE,124,0.0,0.0,94,0.00,,CLR,0.00,0.00,VWS V14.01,2013-02-13 14:45:00,
2013-02-13 06:46:00,32.8,31.3,29.79,SE,124,0.0,0.0,94,0.00,,CLR,0.00,0.00,VWS V14.01,2013-02-13 14:46:00,
2013-02-13 06:48:00,32.8,31.3,29.80,SE,124,0.0,0.0,94,0.00,,CLR,0.00,0.00,VWS V14.01,2013-02-13 14:48:00,
2013-02-13 06:50:00,32.8,31.3,29.80,SE,124,0.0,0.0,94,0.00,,CLR,0.00,0.00,VWS V14.01,2013-02-13 14:50:00,
2013-02-13 06:51:00,32.8,31.3,29.80,SE,124,0.0,0.0,94,0.00,,CLR,0.00,0.00,VWS V14.01,2013-02-13 14:51:00,
2013-02-13 06:53:00,32.8,31.3,29.80,SE,124,0.0,0.0,94,0.00,,CLR,0.00,0.00,VWS V14.01,2013-02-13 14:53:00,
2013-02-13 06:56:00,32.8,31.3,29.80,SE,124,0.0,0.0,94,0.00,,CLR,0.00,0.00,VWS V14.01,2013-02-13 14:56:00,
2013-02-13 06:57:00,32.8,31.3,29.80,SE,124,0.0,0.0,94,0.00,,CLR,0.00,0.00,VWS V14.01,2013-02-13 14:57:00,
2013-02-13 06:58:00,32.7,31.2,29.80,SE,124,0.0,0.0,94,0.00,,CLR,0.00,5.00,VWS V14.01,2013-02-13 14:58:00,
2013-02-13 07:00:00,35.2,33.9,29.81,SE,124,0.0,0.0,95,0.00,,CLR,0.00,93.00,VWS V14.01,2013-02-13 15:00:00,
2013-02-13 07:01:00,32.6,31.1,29.79,SE,124,0.0,0.0,94,0.00,,CLR,0.00,5.00,VWS V14.01,2013-02-13 15:01:00,
2013-02-13 07:02:00,32.6,31.1,29.79,SE,124,0.0,0.0,94,0.00,,CLR,0.00,5.00,VWS V14.01,2013-02-13 15:02:00,
2013-02-13 07:03:00,32.6,31.1,29.79,SE,124,0.0,0.0,94,0.00,,CLR,0.00,7.00,VWS V14.01,2013-02-13 15:03:00,
2013-02-13 07:06:00,32.5,31.0,29.80,SE,124,0.0,0.0,94,0.00,,CLR,0.00,9.00,VWS V14.01,2013-02-13 15:06:00,
2013-02-13 07:07:00,32.5,31.0,29.80,SE,124,0.0,0.0,94,0.00,,CLR,0.00,9.00,VWS V14.01,2013-02-13 15:07:00,
2013-02-13 07:08:00,32.5,31.0,29.80,SE,124,0.0,0.0,94,0.00,,CLR,0.00,9.00,VWS V14.01,2013-02-13 15:08:00,
2013-02-13 07:10:00,32.4,30.9,29.80,SE,124,0.0,0.0,94,0.00,,CLR,0.00,11.00,VWS V14.01,2013-02-13 15:10:00,
2013-02-13 07:12:00,32.5,31.0,29.80,SE,124,0.0,0.0,94,0.00,,CLR,0.00,11.00,VWS V14.01,2013-02-13 15:12:00,
2013-02-13 07:13:00,32.4,30.9,29.80,SE,124,0.0,0.0,94,0.00,,CLR,0.00,12.00,VWS V14.01,2013-02-13 15:13:00,
2013-02-13 07:15:00,32.4,30.9,29.80,SE,124,0.0,0.0,94,0.00,,CLR,0.00,12.00,VWS V14.01,2013-02-13 15:15:00,
2013-02-13 07:17:00,32.4,30.9,29.80,SE,124,0.0,0.0,94,0.00,,CLR,0.00,14.00,VWS V14.01,2013-02-13 15:17:00,
2013-02-13 07:18:00,32.5,31.0,29.80,SE,124,0.0,0.0,94,0.00,,CLR,0.00,14.00,VWS V14.01,2013-02-13 15:18:00,
2013-02-13 07:20:00,32.5,31.0,29.80,SE,124,0.0,0.0,94,0.00,,CLR,0.00,16.00,VWS V14.01,2013-02-13 15:20:00,
2013-02-13 07:22:00,32.5,31.0,29.80,SE,124,0.0,0.0,94,0.00,,CLR,0.00,16.00,VWS V14.01,2013-02-13 15:22:00,
2013-02-13 07:23:00,32.5,31.0,29.80,SE,124,0.0,0.0,94,0.00,,CLR,0.00,16.00,VWS V14.01,2013-02-13 15:23:00,
2013-02-13 07:25:00,32.6,31.1,29.80,SE,124,0.0,0.0,94,0.00,,CLR,0.00,18.00,VWS V14.01,2013-02-13 15:25:00,
2013-02-13 07:27:00,32.6,31.1,29.80,SE,124,0.0,0.0,94,0.00,,CLR,0.00,19.00,VWS V14.01,2013-02-13 15:27:00,
2013-02-13 07:28:00,32.6,31.1,29.80,SE,124,0.0,0.0,94,0.00,,CLR,0.00,19.00,VWS V14.01,2013-02-13 15:28:00,
2013-02-13 07:30:00,32.6,31.1,29.80,SE,124,0.0,0.0,94,0.00,,CLR,0.00,21.00,VWS V14.01,2013-02-13 15:30:00,
2013-02-13 07:33:00,32.7,31.2,29.80,SE,124,0.0,0.0,94,0.00,,CLR,0.00,21.00,VWS V14.01,2013-02-13 15:33:00,
2013-02-13 07:36:00,32.7,31.2,29.80,SE,124,0.0,0.0,94,0.00,,CLR,0.00,26.00,VWS V14.01,2013-02-13 15:36:00,
2013-02-13 07:38:00,32.8,31.3,29.80,SE,124,0.0,0.0,94,0.00,,CLR,0.00,30.00,VWS V14.01,2013-02-13 15:38:00,
2013-02-13 07:40:00,38.3,36.7,29.81,SE,124,0.0,0.0,94,0.00,,CLR,0.00,223.00,VWS V14.01,2013-02-13 15:40:00,
2013-02-13 07:41:00,32.9,31.4,29.80,SE,124,0.0,0.0,94,0.00,,CLR,0.00,39.00,VWS V14.01,2013-02-13 15:41:00,
2013-02-13 07:43:00,33.1,31.6,29.81,SE,124,0.0,0.0,94,0.00,,CLR,0.00,42.00,VWS V14.01,2013-02-13 15:43:00,
2013-02-13 07:44:00,33.2,31.9,29.81,SE,124,0.0,0.0,95,0.00,,CLR,0.00,46.00,VWS V14.01,2013-02-13 15:44:00,
2013-02-13 07:46:00,33.4,32.1,29.81,SE,124,0.0,0.0,95,0.00,,CLR,0.00,53.00,VWS V14.01,2013-02-13 15:46:00,
2013-02-13 07:48:00,33.5,32.2,29.80,SE,124,0.0,0.0,95,0.00,,CLR,0.00,56.00,VWS V14.01,2013-02-13 15:48:00,
2013-02-13 07:50:00,40.0,38.4,29.81,SE,124,0.0,0.0,94,0.00,,CLR,0.00,258.00,VWS V14.01,2013-02-13 15:50:00,
2013-02-13 07:51:00,33.8,32.5,29.80,SE,124,0.0,0.0,95,0.00,,CLR,0.00,69.00,VWS V14.01,2013-02-13 15:51:00,
2013-02-13 07:53:00,34.1,32.8,29.80,SE,124,0.0,0.0,95,0.00,,CLR,0.00,74.00,VWS V14.01,2013-02-13 15:53:00,
2013-02-13 07:54:00,34.3,33.0,29.80,SE,124,0.0,0.0,95,0.00,,CLR,0.00,76.00,VWS V14.01,2013-02-13 15:54:00,
2013-02-13 07:56:00,34.7,33.4,29.81,SE,124,0.0,0.0,95,0.00,,CLR,0.00,84.00,VWS V14.01,2013-02-13 15:56:00,
2013-02-13 07:58:00,35.0,33.7,29.81,SE,124,0.0,0.0,95,0.00,,CLR,0.00,90.00,VWS V14.01,2013-02-13 15:58:00,
2013-02-13 07:59:00,35.0,33.7,29.81,SE,124,0.0,0.0,95,0.00,,CLR,0.00,91.00,VWS V14.01,2013-02-13 15:59:00,
2013-02-13 08:00:00,41.0,38.9,29.81,SE,124,0.0,0.0,92,0.00,,CLR,0.00,290.00,VWS V14.01,2013-02-13 16:00:00,
2013-02-13 08:01:00,35.3,34.0,29.81,SE,124,0.0,0.0,95,0.00,,CLR,0.00,100.00,VWS V14.01,2013-02-13 16:01:00,
2013-02-13 08:03:00,35.7,34.4,29.81,SE,124,0.0,0.0,95,0.00,,CLR,0.00,105.00,VWS V14.01,2013-02-13 16:03:00,
2013-02-13 08:04:00,35.8,34.5,29.81,SE,124,0.0,0.0,95,0.00,,CLR,0.00,107.00,VWS V14.01,2013-02-13 16:04:00,
2013-02-13 08:06:00,36.1,34.8,29.80,SE,124,0.0,0.0,95,0.00,,CLR,0.00,114.00,VWS V14.01,2013-02-13 16:06:00,
2013-02-13 08:08:00,36.3,35.0,29.80,SE,124,0.0,0.0,95,0.00,,CLR,0.00,120.00,VWS V14.01,2013-02-13 16:08:00,
2013-02-13 08:09:00,36.3,35.0,29.81,SE,124,0.0,0.0,95,0.00,,CLR,0.00,123.00,VWS V14.01,2013-02-13 16:09:00,
2013-02-13 08:10:00,42.5,39.8,29.81,SE,124,0.0,0.0,90,0.00,,CLR,0.00,316.00,VWS V14.01,2013-02-13 16:10:00,
2013-02-13 08:11:00,36.4,35.1,29.80,SE,124,0.0,0.0,95,0.00,,CLR,0.00,130.00,VWS V14.01,2013-02-13 16:11:00,
2013-02-13 08:13:00,36.5,35.2,29.80,SE,124,0.0,0.0,95,0.00,,CLR,0.00,134.00,VWS V14.01,2013-02-13 16:13:00,
2013-02-13 08:14:00,36.5,35.2,29.80,SE,124,0.0,0.0,95,0.00,,CLR,0.00,139.00,VWS V14.01,2013-02-13 16:14:00,
2013-02-13 08:16:00,36.6,35.3,29.80,SE,124,0.0,0.0,95,0.00,,CLR,0.00,148.00,VWS V14.01,2013-02-13 16:16:00,
2013-02-13 08:18:00,36.8,35.5,29.81,SE,124,0.0,0.0,95,0.00,,CLR,0.00,153.00,VWS V14.01,2013-02-13 16:18:00,
2013-02-13 08:19:00,36.8,35.5,29.81,SE,124,0.0,0.0,95,0.00,,CLR,0.00,155.00,VWS V14.01,2013-02-13 16:19:00,
2013-02-13 08:20:00,44.4,40.2,29.81,SE,124,0.0,0.0,85,0.00,,CLR,0.00,345.00,VWS V14.01,2013-02-13 16:20:00,
2013-02-13 08:21:00,37.0,35.7,29.81,SE,124,0.0,0.0,95,0.00,,CLR,0.00,163.00,VWS V14.01,2013-02-13 16:21:00,
2013-02-13 08:23:00,37.1,35.8,29.81,SE,124,0.0,0.0,95,0.00,,CLR,0.00,167.00,VWS V14.01,2013-02-13 16:23:00,
2013-02-13 08:24:00,37.1,35.8,29.81,SE,124,0.0,0.0,95,0.00,,CLR,0.00,167.00,VWS V14.01,2013-02-13 16:24:00,
2013-02-13 08:27:00,37.4,36.1,29.81,SE,124,0.0,1.0,95,0.00,,CLR,0.00,181.00,VWS V14.01,2013-02-13 16:27:00,
2013-02-13 08:29:00,37.4,36.1,29.81,SE,124,0.0,1.0,95,0.00,,CLR,0.00,186.00,VWS V14.01,2013-02-13 16:29:00,
2013-02-13 08:30:00,45.8,40.6,29.81,SE,124,0.0,0.0,82,0.00,,CLR,0.00,367.00,VWS V14.01,2013-02-13 16:30:00,
2013-02-13 08:32:00,37.6,36.0,29.81,SE,124,0.0,0.0,94,0.00,,CLR,0.00,199.00,VWS V14.01,2013-02-13 16:32:00,
2013-02-13 08:34:00,37.8,36.5,29.81,SE,124,0.0,0.0,95,0.00,,CLR,0.00,204.00,VWS V14.01,2013-02-13 16:34:00,
2013-02-13 08:37:00,38.0,36.4,29.81,SE,124,0.0,0.0,94,0.00,,CLR,0.00,216.00,VWS V14.01,2013-02-13 16:37:00,
2013-02-13 08:39:00,38.2,36.6,29.81,SE,124,0.0,0.0,94,0.00,,CLR,0.00,221.00,VWS V14.01,2013-02-13 16:39:00,
2013-02-13 08:40:00,47.2,41.0,29.81,SE,124,0.0,0.0,79,0.00,,CLR,0.00,394.00,VWS V14.01,2013-02-13 16:40:00,
2013-02-13 08:42:00,38.7,37.1,29.81,SE,124,0.0,0.0,94,0.00,,CLR,0.00,234.00,VWS V14.01,2013-02-13 16:42:00,
2013-02-13 08:44:00,39.1,37.5,29.81,SE,124,0.0,0.0,94,0.00,,CLR,0.00,239.00,VWS V14.01,2013-02-13 16:44:00,
2013-02-13 08:47:00,39.6,38.3,29.81,SE,124,0.0,0.0,95,0.00,,CLR,0.00,251.00,VWS V14.01,2013-02-13 16:47:00,
2013-02-13 08:49:00,39.9,38.3,29.81,SE,124,0.0,0.0,94,0.00,,CLR,0.00,257.00,VWS V14.01,2013-02-13 16:49:00,
2013-02-13 08:50:00,49.6,43.0,29.81,SE,124,0.0,0.0,78,0.00,,CLR,0.00,422.00,VWS V14.01,2013-02-13 16:50:00,
2013-02-13 08:52:00,40.2,38.3,29.81,SE,124,0.0,0.0,93,0.00,,CLR,0.00,267.00,VWS V14.01,2013-02-13 16:52:00,
2013-02-13 08:54:00,40.4,38.5,29.81,SE,124,0.0,0.0,93,0.00,,CLR,0.00,272.00,VWS V14.01,2013-02-13 16:54:00,
2013-02-13 08:57:00,40.7,38.6,29.81,SE,124,0.0,0.0,92,0.00,,CLR,0.00,281.00,VWS V14.01,2013-02-13 16:57:00,
2013-02-13 08:59:00,40.9,38.8,29.81,SE,124,0.0,0.0,92,0.00,,CLR,0.00,287.00,VWS V14.01,2013-02-13 16:59:00,
2013-02-13 09:00:00,51.8,43.8,29.81,SE,124,0.0,0.0,74,0.00,,CLR,0.00,445.00,VWS V14.01,2013-02-13 17:00:00,
2013-02-13 09:02:00,41.3,39.2,29.81,SE,124,0.0,0.0,92,0.00,,CLR,0.00,294.00,VWS V14.01,2013-02-13 17:02:00,
2013-02-13 09:04:00,41.5,39.3,29.81,SE,124,0.0,0.0,92,0.00,,CLR,0.00,302.00,VWS V14.01,2013-02-13 17:04:00,
2013-02-13 09:05:00,41.6,39.5,29.81,SE,124,0.0,0.0,92,0.00,,CLR,0.00,302.00,VWS V14.01,2013-02-13 17:05:00,
2013-02-13 09:07:00,42.1,39.7,29.81,SE,124,0.0,0.0,91,0.00,,CLR,0.00,309.00,VWS V14.01,2013-02-13 17:07:00,
2013-02-13 09:09:00,42.5,39.8,29.81,SE,124,0.0,0.0,90,0.00,,CLR,0.00,316.00,VWS V14.01,2013-02-13 17:09:00,
2013-02-13 09:10:00,42.6,39.9,29.81,SE,124,0.0,0.0,90,0.00,,CLR,0.00,318.00,VWS V14.01,2013-02-13 17:10:00,
2013-02-13 09:12:00,43.1,40.1,29.81,SE,124,0.0,0.0,89,0.00,,CLR,0.00,323.00,VWS V14.01,2013-02-13 17:12:00,
2013-02-13 09:14:00,43.4,39.8,29.81,SE,124,0.0,0.0,87,0.00,,CLR,0.00,330.00,VWS V14.01,2013-02-13 17:14:00,
2013-02-13 09:15:00,43.4,39.8,29.81,SE,124,0.0,0.0,87,0.00,,CLR,0.00,330.00,VWS V14.01,2013-02-13 17:15:00,
2013-02-13 09:17:00,44.0,40.1,29.82,SE,124,0.0,0.0,86,0.00,,CLR,0.00,338.00,VWS V14.01,2013-02-13 17:17:00,
2013-02-13 09:19:00,44.3,40.1,29.81,SE,124,0.0,0.0,85,0.00,,CLR,0.00,345.00,VWS V14.01,2013-02-13 17:19:00,
2013-02-13 09:20:00,44.3,40.1,29.81,SE,124,0.0,0.0,85,0.00,,CLR,0.00,345.00,VWS V14.01,2013-02-13 17:20:00,
2013-02-13 09:22:00,44.9,40.7,29.81,SE,124,0.0,0.0,85,0.00,,CLR,0.00,350.00,VWS V14.01,2013-02-13 17:22:00,
2013-02-13 09:25:00,45.2,40.7,29.81,SE,124,0.0,0.0,84,0.00,,CLR,0.00,355.00,VWS V14.01,2013-02-13 17:25:00,
2013-02-13 09:28:00,45.6,40.7,29.81,SE,124,0.0,0.0,83,0.00,,CLR,0.00,364.00,VWS V14.01,2013-02-13 17:28:00,
2013-02-13 09:30:00,45.8,40.6,29.81,SE,124,0.0,0.0,82,0.00,,CLR,0.00,367.00,VWS V14.01,2013-02-13 17:30:00,
2013-02-13 09:33:00,46.2,40.7,29.82,SE,124,0.0,0.0,81,0.00,,CLR,0.00,376.00,VWS V14.01,2013-02-13 17:33:00,
2013-02-13 09:35:00,46.6,40.8,29.82,SE,124,0.0,0.0,80,0.00,,CLR,0.00,383.00,VWS V14.01,2013-02-13 17:35:00,
2013-02-13 09:38:00,47.0,40.5,29.81,SE,124,0.0,0.0,78,0.00,,CLR,0.00,390.00,VWS V14.01,2013-02-13 17:38:00,
2013-02-13 09:40:00,47.2,41.0,29.81,SE,124,0.0,0.0,79,0.00,,CLR,0.00,394.00,VWS V14.01,2013-02-13 17:40:00,
2013-02-13 09:41:00,47.4,41.2,29.81,SE,124,0.0,0.0,79,0.00,,CLR,0.00,397.00,VWS V14.01,2013-02-13 17:41:00,
2013-02-13 09:43:00,47.7,41.2,29.81,SE,124,0.0,0.0,78,0.00,,CLR,0.00,403.00,VWS V14.01,2013-02-13 17:43:00,
2013-02-13 09:45:00,48.1,41.9,29.81,SE,124,0.0,0.0,79,0.00,,CLR,0.00,408.00,VWS V14.01,2013-02-13 17:45:00,
2013-02-13 09:46:00,48.3,41.8,29.81,SE,124,0.0,0.0,78,0.00,,CLR,0.00,410.00,VWS V14.01,2013-02-13 17:46:00,
2013-02-13 09:48:00,49.0,42.8,29.81,SE,124,0.0,0.0,79,0.00,,CLR,0.00,417.00,VWS V14.01,2013-02-13 17:48:00,
2013-02-13 09:50:00,49.6,42.4,29.81,SE,124,0.0,0.0,76,0.00,,CLR,0.00,422.00,VWS V14.01,2013-02-13 17:50:00,
2013-02-13 09:51:00,49.8,42.9,29.81,SE,124,0.0,0.0,77,0.00,,CLR,0.00,422.00,VWS V14.01,2013-02-13 17:51:00,
2013-02-13 09:53:00,50.3,42.7,29.81,SE,124,0.0,0.0,75,0.00,,CLR,0.00,429.00,VWS V14.01,2013-02-13 17:53:00,
2013-02-13 09:55:00,50.6,43.0,29.81,SE,124,0.0,0.0,75,0.00,,CLR,0.00,432.00,VWS V14.01,2013-02-13 17:55:00,
2013-02-13 09:56:00,50.8,43.2,29.81,SE,124,0.0,0.0,75,0.00,,CLR,0.00,434.00,VWS V14.01,2013-02-13 17:56:00,
2013-02-13 09:58:00,51.4,43.8,29.81,SE,124,0.0,0.0,75,0.00,,CLR,0.00,441.00,VWS V14.01,2013-02-13 17:58:00,
2013-02-13 10:00:00,51.9,43.9,29.81,SE,124,0.0,0.0,74,0.00,,CLR,0.00,445.00,VWS V14.01,2013-02-13 18:00:00,
2013-02-13 10:01:00,52.0,44.0,29.81,SE,124,0.0,0.0,74,0.00,,CLR,0.00,448.00,VWS V14.01,2013-02-13 18:01:00,
2013-02-13 10:03:00,52.7,43.9,29.81,SE,124,0.0,0.0,72,0.00,,CLR,0.00,452.00,VWS V14.01,2013-02-13 18:03:00,
2013-02-13 10:05:00,53.1,44.0,29.81,SSE,168,0.0,2.0,71,0.00,,CLR,0.00,459.00,VWS V14.01,2013-02-13 18:05:00,
2013-02-13 10:06:00,53.2,44.0,29.81,SSE,168,0.0,2.0,71,0.00,,CLR,0.00,461.00,VWS V14.01,2013-02-13 18:06:00,
2013-02-13 10:09:00,53.8,44.3,29.81,SSE,168,0.0,2.0,70,0.00,,CLR,0.00,466.00,VWS V14.01,2013-02-13 18:09:00,
2013-02-13 10:10:00,54.0,44.1,29.81,South,169,0.0,1.0,69,0.00,,CLR,0.00,469.00,VWS V14.01,2013-02-13 18:10:00,
2013-02-13 10:11:00,54.1,44.2,29.81,SSE,168,0.0,1.0,69,0.00,,CLR,0.00,471.00,VWS V14.01,2013-02-13 18:11:00,
2013-02-13 10:14:00,54.7,44.4,29.81,South,169,0.0,1.0,68,0.00,,CLR,0.00,476.00,VWS V14.01,2013-02-13 18:14:00,
2013-02-13 10:15:00,54.9,44.2,29.81,South,169,0.0,1.0,67,0.00,,CLR,0.00,482.00,VWS V14.01,2013-02-13 18:15:00,
2013-02-13 10:16:00,55.0,44.3,29.81,South,169,1.0,1.0,67,0.00,,CLR,0.00,483.00,VWS V14.01,2013-02-13 18:16:00,
2013-02-13 10:17:00,55.0,44.3,29.81,South,169,0.0,1.0,67,0.00,,CLR,0.00,483.00,VWS V14.01,2013-02-13 18:17:00,
2013-02-13 10:19:00,55.4,44.6,29.81,South,169,0.0,1.0,67,0.00,,CLR,0.00,487.00,VWS V14.01,2013-02-13 18:19:00,
2013-02-13 10:20:00,55.7,44.5,29.81,SE,125,1.0,3.0,66,0.00,,CLR,0.00,489.00,VWS V14.01,2013-02-13 18:20:00,
2013-02-13 10:21:00,55.8,44.6,29.81,SSE,161,1.0,4.0,66,0.00,,CLR,0.00,494.00,VWS V14.01,2013-02-13 18:21:00,
2013-02-13 10:22:00,55.8,44.2,29.81,SSE,161,1.0,4.0,65,0.00,,CLR,0.00,494.00,VWS V14.01,2013-02-13 18:22:00,
2013-02-13 10:24:00,55.8,44.2,29.81,South,175,1.0,4.0,65,0.00,,CLR,0.00,499.00,VWS V14.01,2013-02-13 18:24:00,
2013-02-13 10:25:00,55.9,44.7,29.81,South,175,0.0,4.0,66,0.00,,CLR,0.00,501.00,VWS V14.01,2013-02-13 18:25:00,
2013-02-13 10:26:00,55.9,44.3,29.81,South,175,0.0,4.0,65,0.00,,CLR,0.00,503.00,VWS V14.01,2013-02-13 18:26:00,
2013-02-13 10:27:00,55.9,44.3,29.81,South,175,0.0,4.0,65,0.00,,CLR,0.00,503.00,VWS V14.01,2013-02-13 18:27:00,
2013-02-13 10:29:00,56.2,44.2,29.80,ESE,123,3.0,4.0,64,0.00,,CLR,0.00,508.00,VWS V14.01,2013-02-13 18:29:00,
2013-02-13 10:30:00,56.2,44.2,29.80,ESE,115,0.0,2.0,64,0.00,,CLR,0.00,512.00,VWS V14.01,2013-02-13 18:30:00,
2013-02-13 10:31:00,56.2,44.6,29.81,ESE,115,1.0,2.0,65,0.00,,CLR,0.00,512.00,VWS V14.01,2013-02-13 18:31:00,
2013-02-13 10:32:00,56.3,44.7,29.81,SE,132,1.0,2.0,65,0.00,,CLR,0.00,513.00,VWS V14.01,2013-02-13 18:32:00,
2013-02-13 10:34:00,56.5,44.5,29.81,SSE,148,2.0,3.0,64,0.00,,CLR,0.00,517.00,VWS V14.01,2013-02-13 18:34:00,
2013-02-13 10:36:00,56.5,44.5,29.81,SE,132,0.0,3.0,64,0.00,,CLR,0.00,520.00,VWS V14.01,2013-02-13 18:36:00,
2013-02-13 10:37:00,56.5,44.1,29.81,SE,145,0.0,3.0,63,0.00,,CLR,0.00,522.00,VWS V14.01,2013-02-13 18:37:00,
2013-02-13 10:39:00,56.8,45.2,29.81,SE,145,0.0,3.0,65,0.00,,CLR,0.00,524.00,VWS V14.01,2013-02-13 18:39:00,
2013-02-13 10:40:00,59.5,46.9,29.79,SE,136,1.0,6.0,63,0.00,,CLR,0.00,601.00,VWS V14.01,2013-02-13 18:40:00,
2013-02-13 10:41:00,57.0,45.4,29.80,SSE,160,0.0,3.0,65,0.00,,CLR,0.00,529.00,VWS V14.01,2013-02-13 18:41:00,
2013-02-13 10:42:00,57.1,45.0,29.80,SSE,160,0.0,3.0,64,0.00,,CLR,0.00,529.00,VWS V14.01,2013-02-13 18:42:00,
2013-02-13 10:44:00,57.5,45.4,29.80,SSE,163,0.0,3.0,64,0.00,,CLR,0.00,533.00,VWS V14.01,2013-02-13 18:44:00,
2013-02-13 10:46:00,57.8,45.3,29.81,SSE,163,0.0,3.0,63,0.00,,CLR,0.00,538.00,VWS V14.01,2013-02-13 18:46:00,
2013-02-13 10:47:00,58.0,45.5,29.80,SSE,163,0.0,3.0,63,0.00,,CLR,0.00,538.00,VWS V14.01,2013-02-13 18:47:00,
2013-02-13 10:50:00,58.2,45.3,29.80,SE,144,2.0,4.0,62,0.00,,CLR,0.00,543.00,VWS V14.01,2013-02-13 18:50:00,
2013-02-13 10:51:00,58.2,45.3,29.80,SE,124,2.0,4.0,62,0.00,,CLR,0.00,547.00,VWS V14.01,2013-02-13 18:51:00,
2013-02-13 10:52:00,58.1,44.7,29.80,SSE,161,3.0,4.0,61,0.00,,CLR,0.00,547.00,VWS V14.01,2013-02-13 18:52:00,
2013-02-13 10:55:00,58.0,45.5,29.80,SE,140,0.0,4.0,63,0.00,,CLR,0.00,550.00,VWS V14.01,2013-02-13 18:55:00,
2013-02-13 10:56:00,58.0,45.9,29.80,SE,143,0.0,4.0,64,0.00,,CLR,0.00,554.00,VWS V14.01,2013-02-13 18:56:00,
2013-02-13 10:57:00,58.1,45.6,29.80,SE,143,0.0,4.0,63,0.00,,CLR,0.00,554.00,VWS V14.01,2013-02-13 18:57:00,
2013-02-13 11:00:00,58.6,46.1,29.80,SE,144,1.0,1.0,63,0.00,,CLR,0.00,559.00,VWS V14.01,2013-02-13 19:00:00,
2013-02-13 11:01:00,58.8,46.2,29.80,SE,144,2.0,2.0,63,0.00,,CLR,0.00,561.00,VWS V14.01,2013-02-13 19:01:00,
2013-02-13 11:02:00,58.8,46.2,29.80,SE,144,2.0,2.0,63,0.00,,CLR,0.00,561.00,VWS V14.01,2013-02-13 19:02:00,
2013-02-13 11:05:00,58.9,46.3,29.80,SE,134,1.0,3.0,63,0.00,,CLR,0.00,568.00,VWS V14.01,2013-02-13 19:05:00,
2013-02-13 11:07:00,58.8,45.8,29.80,SE,132,4.0,4.0,62,0.00,,CLR,0.00,570.00,VWS V14.01,2013-02-13 19:07:00,
2013-02-13 11:10:00,58.5,45.5,29.80,ESE,111,1.0,2.0,62,0.00,,CLR,0.00,575.00,VWS V14.01,2013-02-13 19:10:00,
2013-02-13 11:12:00,58.2,45.3,29.80,SE,135,0.0,4.0,62,0.00,,CLR,0.00,577.00,VWS V14.01,2013-02-13 19:12:00,
2013-02-13 11:15:00,57.9,45.4,29.79,SSE,155,0.0,4.0,63,0.00,,CLR,0.00,580.00,VWS V14.01,2013-02-13 19:15:00,
2013-02-13 11:17:00,57.9,45.8,29.80,SSE,155,0.0,4.0,64,0.00,,CLR,0.00,582.00,VWS V14.01,2013-02-13 19:17:00,
2013-02-13 11:20:00,58.3,45.8,29.80,SE,133,0.0,0.0,63,0.00,,CLR,0.00,587.00,VWS V14.01,2013-02-13 19:20:00,
2013-02-13 11:22:00,58.5,46.4,29.80,SSE,162,0.0,4.0,64,0.00,,CLR,0.00,587.00,VWS V14.01,2013-02-13 19:22:00,
2013-02-13 11:25:00,58.9,45.9,29.80,SE,130,1.0,5.0,62,0.00,,CLR,0.00,591.00,VWS V14.01,2013-02-13 19:25:00,
2013-02-13 11:27:00,58.9,45.9,29.79,SE,142,3.0,5.0,62,0.00,,CLR,0.00,592.00,VWS V14.01,2013-02-13 19:27:00,
2013-02-13 11:30:00,58.8,46.2,29.80,ESE,121,4.0,6.0,63,0.00,,CLR,0.00,596.00,VWS V14.01,2013-02-13 19:30:00,
2013-02-13 11:32:00,58.7,46.2,29.79,SSE,153,0.0,6.0,63,0.00,,CLR,0.00,596.00,VWS V14.01,2013-02-13 19:32:00,
2013-02-13 11:35:00,58.9,46.3,29.79,South,173,1.0,6.0,63,0.00,,CLR,0.00,601.00,VWS V14.01,2013-02-13 19:35:00,
2013-02-13 11:37:00,59.1,47.0,29.79,SE,137,0.0,6.0,64,0.00,,CLR,0.00,601.00,VWS V14.01,2013-02-13 19:37:00,
2013-02-13 11:40:00,59.5,46.9,29.79,SE,126,3.0,3.0,63,0.00,,CLR,0.00,605.00,VWS V14.01,2013-02-13 19:40:00,
2013-02-13 11:42:00,59.8,46.8,29.79,SE,127,3.0,5.0,62,0.00,,CLR,0.00,605.00,VWS V14.01,2013-02-13 19:42:00,
2013-02-13 11:43:00,59.8,46.8,29.79,SE,135,4.0,5.0,62,0.00,,CLR,0.00,605.00,VWS V14.01,2013-02-13 19:43:00,
2013-02-13 11:45:00,59.6,46.2,29.79,South,186,0.0,5.0,61,0.00,,CLR,0.00,606.00,VWS V14.01,2013-02-13 19:45:00,
2013-02-13 11:47:00,59.5,46.5,29.79,SSE,153,0.0,5.0,62,0.00,,CLR,0.00,608.00,VWS V14.01,2013-02-13 19:47:00,
2013-02-13 11:48:00,59.5,46.5,29.79,SSE,153,0.0,5.0,62,0.00,,CLR,0.00,608.00,VWS V14.01,2013-02-13 19:48:00,
2013-02-13 11:50:00,61.9,47.0,29.76,SE,137,1.0,5.0,58,0.00,,CLR,0.00,619.00,VWS V14.01,2013-02-13 19:50:00,
2013-02-13 11:51:00,59.6,46.6,29.79,SSE,150,1.0,4.0,62,0.00,,CLR,0.00,612.00,VWS V14.01,2013-02-13 19:51:00,
2013-02-13 11:53:00,59.6,46.6,29.79,SSE,147,1.0,4.0,62,0.00,,CLR,0.00,608.00,VWS V14.01,2013-02-13 19:53:00,
2013-02-13 11:56:00,59.6,47.0,29.79,SSE,155,0.0,5.0,63,0.00,,CLR,0.00,613.00,VWS V14.01,2013-02-13 19:56:00,
2013-02-13 11:58:00,59.6,46.6,29.79,SSE,159,1.0,5.0,62,0.00,,CLR,0.00,615.00,VWS V14.01,2013-02-13 19:58:00,
2013-02-13 12:00:00,62.7,47.3,29.75,SSE,157,3.0,3.0,57,0.00,,CLR,0.00,612.00,VWS V14.01,2013-02-13 20:00:00,
2013-02-13 12:01:00,59.8,47.2,29.78,SSE,151,0.0,2.0,63,0.00,,CLR,0.00,613.00,VWS V14.01,2013-02-13 20:01:00,
2013-02-13 12:03:00,60.0,47.8,29.78,SE,130,2.0,3.0,64,0.00,,CLR,0.00,617.00,VWS V14.01,2013-02-13 20:03:00,
2013-02-13 12:06:00,60.0,47.0,29.78,ESE,120,2.0,6.0,62,0.00,,CLR,0.00,617.00,VWS V14.01,2013-02-13 20:06:00,
2013-02-13 12:08:00,59.8,46.8,29.78,South,177,1.0,6.0,62,0.00,,CLR,0.00,617.00,VWS V14.01,2013-02-13 20:08:00,
2013-02-13 12:10:00,63.0,47.1,29.75,ESE,121,2.0,6.0,56,0.00,,CLR,0.00,606.00,VWS V14.01,2013-02-13 20:10:00,
2013-02-13 12:12:00,59.8,47.2,29.78,ESE,120,0.0,4.0,63,0.00,,CLR,0.00,617.00,VWS V14.01,2013-02-13 20:12:00,
2013-02-13 12:13:00,59.9,47.7,29.78,ESE,120,0.0,4.0,64,0.00,,CLR,0.00,621.00,VWS V14.01,2013-02-13 20:13:00,
2013-02-13 12:17:00,60.5,47.4,29.77,SE,136,3.0,5.0,62,0.00,,CLR,0.00,619.00,VWS V14.01,2013-02-13 20:17:00,
2013-02-13 12:18:00,60.6,47.5,29.77,South,172,0.0,5.0,62,0.00,,CLR,0.00,619.00,VWS V14.01,2013-02-13 20:18:00,
2013-02-13 12:20:00,61.3,46.4,29.75,SSE,151,0.0,9.0,58,0.00,,CLR,0.00,599.00,VWS V14.01,2013-02-13 20:20:00,
2013-02-13 12:22:00,60.9,47.8,29.77,ESE,113,0.0,5.0,62,0.00,,CLR,0.00,619.00,VWS V14.01,2013-02-13 20:22:00,
2013-02-13 12:23:00,61.0,47.9,29.77,SE,140,0.0,5.0,62,0.00,,CLR,0.00,617.00,VWS V14.01,2013-02-13 20:23:00,
2013-02-13 12:27:00,61.4,47.8,29.77,ESE,118,2.0,5.0,61,0.00,,CLR,0.00,617.00,VWS V14.01,2013-02-13 20:27:00,
2013-02-13 12:28:00,61.5,47.5,29.77,SE,132,1.0,5.0,60,0.00,,CLR,0.00,617.00,VWS V14.01,2013-02-13 20:28:00,
2013-02-13 12:29:00,61.5,47.5,29.77,ESE,111,3.0,5.0,60,0.00,,CLR,0.00,622.00,VWS V14.01,2013-02-13 20:29:00,
2013-02-13 12:30:00,62.2,47.7,29.74,SE,139,3.0,6.0,59,0.00,,CLR,0.00,591.00,VWS V14.01,2013-02-13 20:30:00,
2013-02-13 12:32:00,61.2,47.2,29.77,SSE,150,0.0,4.0,60,0.00,,CLR,0.00,619.00,VWS V14.01,2013-02-13 20:32:00,
2013-02-13 12:33:00,61.2,47.7,29.77,SSE,150,0.0,4.0,61,0.00,,CLR,0.00,619.00,VWS V14.01,2013-02-13 20:33:00,
2013-02-13 12:34:00,61.3,47.8,29.77,SSE,160,1.0,4.0,61,0.00,,CLR,0.00,619.00,VWS V14.01,2013-02-13 20:34:00,
2013-02-13 12:37:00,61.5,47.5,29.76,SSE,167,0.0,4.0,60,0.00,,CLR,0.00,621.00,VWS V14.01,2013-02-13 20:37:00,
2013-02-13 12:38:00,61.6,47.6,29.76,SSE,149,0.0,4.0,60,0.00,,CLR,0.00,621.00,VWS V14.01,2013-02-13 20:38:00,
2013-02-13 12:39:00,61.6,47.6,29.76,SSE,151,1.0,4.0,60,0.00,,CLR,0.00,619.00,VWS V14.01,2013-02-13 20:39:00,
2013-02-13 12:40:00,62.7,47.7,29.74,SSE,167,4.0,9.0,58,0.00,,CLR,0.00,580.00,VWS V14.01,2013-02-13 20:40:00,
2013-02-13 12:42:00,61.8,47.3,29.76,South,175,2.0,5.0,59,0.00,,CLR,0.00,621.00,VWS V14.01,2013-02-13 20:42:00,
2013-02-13 12:43:00,61.8,46.9,29.76,ESE,115,0.0,5.0,58,0.00,,CLR,0.00,621.00,VWS V14.01,2013-02-13 20:43:00,
2013-02-13 12:44:00,61.8,46.9,29.76,ESE,115,0.0,5.0,58,0.00,,CLR,0.00,619.00,VWS V14.01,2013-02-13 20:44:00,
2013-02-13 12:47:00,62.0,47.1,29.76,South,171,2.0,5.0,58,0.00,,CLR,0.00,621.00,VWS V14.01,2013-02-13 20:47:00,
2013-02-13 12:48:00,61.9,47.0,29.76,SE,138,0.0,5.0,58,0.00,,CLR,0.00,619.00,VWS V14.01,2013-02-13 20:48:00,
2013-02-13 12:49:00,61.9,47.0,29.76,SE,138,0.0,5.0,58,0.00,,CLR,0.00,619.00,VWS V14.01,2013-02-13 20:49:00,
2013-02-13 12:50:00,62.8,48.3,29.73,SSE,167,0.0,7.0,59,0.00,,CLR,0.00,568.00,VWS V14.01,2013-02-13 20:50:00,
2013-02-13 12:52:00,62.2,47.3,29.76,South,173,0.0,2.0,58,0.00,,CLR,0.00,619.00,VWS V14.01,2013-02-13 20:52:00,
2013-02-13 12:54:00,62.3,47.3,29.76,South,180,0.0,2.0,58,0.00,,CLR,0.00,617.00,VWS V14.01,2013-02-13 20:54:00,
2013-02-13 12:57:00,62.5,46.6,29.76,South,171,0.0,3.0,56,0.00,,CLR,0.00,612.00,VWS V14.01,2013-02-13 20:57:00,
2013-02-13 12:59:00,62.6,47.2,29.75,South,171,0.0,3.0,57,0.00,,CLR,0.00,612.00,VWS V14.01,2013-02-13 20:59:00,
2013-02-13 13:00:00,63.2,48.2,29.73,East,100,2.0,6.0,58,0.00,,CLR,0.00,552.00,VWS V14.01,2013-02-13 21:00:00,
2013-02-13 13:02:00,62.8,46.9,29.75,SE,132,1.0,4.0,56,0.00,,CLR,0.00,610.00,VWS V14.01,2013-02-13 21:02:00,
2013-02-13 13:04:00,62.9,47.5,29.75,SSE,165,0.0,4.0,57,0.00,,CLR,0.00,610.00,VWS V14.01,2013-02-13 21:04:00,
2013-02-13 13:07:00,63.0,47.1,29.75,SSE,167,0.0,4.0,56,0.00,,CLR,0.00,610.00,VWS V14.01,2013-02-13 21:07:00,
2013-02-13 13:09:00,63.1,47.6,29.75,SE,136,6.0,6.0,57,0.00,,CLR,0.00,608.00,VWS V14.01,2013-02-13 21:09:00,
2013-02-13 13:10:00,62.6,47.2,29.73,SSE,156,1.0,9.0,57,0.00,,CLR,0.00,536.00,VWS V14.01,2013-02-13 21:10:00,
2013-02-13 13:12:00,62.8,46.9,29.75,ESE,117,6.0,6.0,56,0.00,,CLR,0.00,606.00,VWS V14.01,2013-02-13 21:12:00,
2013-02-13 13:14:00,62.4,46.5,29.75,ESE,119,2.0,6.0,56,0.00,,CLR,0.00,603.00,VWS V14.01,2013-02-13 21:14:00,
2013-02-13 13:15:00,62.3,46.4,29.75,ESE,123,4.0,6.0,56,0.00,,CLR,0.00,603.00,VWS V14.01,2013-02-13 21:15:00,
2013-02-13 13:17:00,61.6,46.2,29.74,ESE,119,0.0,9.0,57,0.00,,CLR,0.00,599.00,VWS V14.01,2013-02-13 21:17:00,
2013-02-13 13:19:00,61.4,46.5,29.75,SSE,163,1.0,9.0,58,0.00,,CLR,0.00,599.00,VWS V14.01,2013-02-13 21:19:00,
2013-02-13 13:20:00,61.3,46.4,29.75,SE,132,1.0,1.0,58,0.00,,CLR,0.00,599.00,VWS V14.01,2013-02-13 21:20:00,
2013-02-13 13:22:00,61.4,47.0,29.75,SE,144,0.0,3.0,59,0.00,,CLR,0.00,598.00,VWS V14.01,2013-02-13 21:22:00,
2013-02-13 13:24:00,61.5,47.1,29.74,South,169,0.0,3.0,59,0.00,,CLR,0.00,596.00,VWS V14.01,2013-02-13 21:24:00,
2013-02-13 13:25:00,61.5,47.1,29.74,South,169,0.0,3.0,59,0.00,,CLR,0.00,594.00,VWS V14.01,2013-02-13 21:25:00,
2013-02-13 13:28:00,61.9,47.4,29.74,ESE,111,0.0,3.0,59,0.00,,CLR,0.00,592.00,VWS V14.01,2013-02-13 21:28:00,
2013-02-13 13:29:00,62.1,48.5,29.74,South,180,0.0,3.0,61,0.00,,CLR,0.00,591.00,VWS V14.01,2013-02-13 21:29:00,
2013-02-13 13:30:00,62.2,47.7,29.74,SE,139,3.0,6.0,59,0.00,,CLR,0.00,591.00,VWS V14.01,2013-02-13 21:30:00,
2013-02-13 13:33:00,62.4,47.5,29.74,SE,136,0.0,9.0,58,0.00,,CLR,0.00,587.00,VWS V14.01,2013-02-13 21:33:00,
2013-02-13 13:34:00,62.4,47.5,29.74,SSW,207,1.0,9.0,58,0.00,,CLR,0.00,585.00,VWS V14.01,2013-02-13 21:34:00,
2013-02-13 13:35:00,62.4,47.5,29.74,South,182,0.0,9.0,58,0.00,,CLR,0.00,585.00,VWS V14.01,2013-02-13 21:35:00,
2013-02-13 13:38:00,62.6,47.6,29.74,SSE,150,0.0,9.0,58,0.00,,CLR,0.00,580.00,VWS V14.01,2013-02-13 21:38:00,
2013-02-13 13:40:00,62.7,47.7,29.74,SSE,167,4.0,9.0,58,0.00,,CLR,0.00,580.00,VWS V14.01,2013-02-13 21:40:00,
2013-02-13 13:43:00,62.7,47.3,29.74,SE,142,6.0,7.0,57,0.00,,CLR,0.00,575.00,VWS V14.01,2013-02-13 21:43:00,
2013-02-13 13:45:00,62.5,47.5,29.74,ESE,107,1.0,7.0,58,0.00,,CLR,0.00,575.00,VWS V14.01,2013-02-13 21:45:00,
2013-02-13 13:48:00,62.6,47.6,29.73,SSW,196,1.0,7.0,58,0.00,,CLR,0.00,568.00,VWS V14.01,2013-02-13 21:48:00,
2013-02-13 13:50:00,62.8,47.8,29.73,South,184,1.0,1.0,58,0.00,,CLR,0.00,568.00,VWS V14.01,2013-02-13 21:50:00,
2013-02-13 13:53:00,63.0,48.0,29.73,SSE,153,3.0,5.0,58,0.00,,CLR,0.00,561.00,VWS V14.01,2013-02-13 21:53:00,
2013-02-13 13:55:00,63.1,47.6,29.73,South,191,6.0,6.0,57,0.00,,CLR,0.00,563.00,VWS V14.01,2013-02-13 21:55:00,
2013-02-13 13:58:00,63.2,47.7,29.73,SE,128,0.0,6.0,57,0.00,,CLR,0.00,555.00,VWS V14.01,2013-02-13 21:58:00,
2013-02-13 14:00:00,63.2,48.2,29.73,ESE,104,5.0,5.0,58,0.00,,CLR,0.00,552.00,VWS V14.01,2013-02-13 22:00:00,
2013-02-13 14:01:00,63.2,48.2,29.73,ESE,115,5.0,5.0,58,0.00,,CLR,0.00,552.00,VWS V14.01,2013-02-13 22:01:00,
2013-02-13 14:03:00,62.9,47.5,29.73,ESE,105,6.0,6.0,57,0.00,,CLR,0.00,545.00,VWS V14.01,2013-02-13 22:03:00,
2013-02-13 14:05:00,62.8,47.8,29.73,ESE,107,4.0,6.0,58,0.00,,CLR,0.00,541.00,VWS V14.01,2013-02-13 22:05:00,
2013-02-13 14:06:00,62.8,47.8,29.73,ESE,107,0.0,6.0,58,0.00,,CLR,0.00,540.00,VWS V14.01,2013-02-13 22:06:00,
2013-02-13 14:08:00,62.7,47.3,29.73,SE,144,1.0,8.0,57,0.00,,CLR,0.00,536.00,VWS V14.01,2013-02-13 22:08:00,
2013-02-13 14:10:00,62.6,47.2,29.73,ESE,122,2.0,2.0,57,0.00,,CLR,0.00,533.00,VWS V14.01,2013-02-13 22:10:00,
2013-02-13 14:11:00,62.5,47.1,29.73,SE,129,8.0,11.0,57,0.00,,CLR,0.00,534.00,VWS V14.01,2013-02-13 22:11:00,
2013-02-13 14:13:00,62.3,47.3,29.73,SSE,163,1.0,11.0,58,0.00,,CLR,0.00,527.00,VWS V14.01,2013-02-13 22:13:00,
2013-02-13 14:15:00,62.3,46.9,29.73,SSE,167,0.0,11.0,57,0.00,,CLR,0.00,526.00,VWS V14.01,2013-02-13 22:15:00,
2013-02-13 14:16:00,62.3,46.9,29.73,SSE,167,0.0,11.0,57,0.00,,CLR,0.00,526.00,VWS V14.01,2013-02-13 22:16:00,
2013-02-13 14:19:00,62.3,46.0,29.73,South,180,1.0,11.0,55,0.00,,CLR,0.00,519.00,VWS V14.01,2013-02-13 22:19:00,
2013-02-13 14:20:00,62.3,46.4,29.72,South,171,2.0,2.0,56,0.00,,CLR,0.00,513.00,VWS V14.01,2013-02-13 22:20:00,
2013-02-13 14:21:00,62.3,46.4,29.72,SSE,160,1.0,2.0,56,0.00,,CLR,0.00,513.00,VWS V14.01,2013-02-13 22:21:00,
2013-02-13 14:24:00,62.4,46.0,29.72,SE,143,3.0,4.0,55,0.00,,CLR,0.00,508.00,VWS V14.01,2013-02-13 22:24:00,
2013-02-13 14:25:00,62.5,45.7,29.72,South,173,2.0,6.0,54,0.00,,CLR,0.00,506.00,VWS V14.01,2013-02-13 22:25:00,
2013-02-13 14:26:00,62.5,45.7,29.72,South,174,0.0,6.0,54,0.00,,CLR,0.00,506.00,VWS V14.01,2013-02-13 22:26:00,
2013-02-13 14:29:00,62.4,45.5,29.72,SSE,165,0.0,6.0,54,0.00,,CLR,0.00,501.00,VWS V14.01,2013-02-13 22:29:00,
2013-02-13 14:30:00,62.5,46.1,29.72,South,172,6.0,7.0,55,0.00,,CLR,0.00,496.00,VWS V14.01,2013-02-13 22:30:00,
2013-02-13 14:31:00,62.5,45.7,29.72,SSE,150,0.0,8.0,54,0.00,,CLR,0.00,496.00,VWS V14.01,2013-02-13 22:31:00,
2013-02-13 14:34:00,62.7,45.3,29.72,ESE,108,2.0,8.0,53,0.00,,CLR,0.00,489.00,VWS V14.01,2013-02-13 22:34:00,
2013-02-13 14:35:00,62.7,45.3,29.72,ESE,111,0.0,8.0,53,0.00,,CLR,0.00,485.00,VWS V14.01,2013-02-13 22:35:00,
2013-02-13 14:36:00,62.7,45.3,29.72,SSE,150,4.0,8.0,53,0.00,,CLR,0.00,485.00,VWS V14.01,2013-02-13 22:36:00,
2013-02-13 14:39:00,62.7,45.3,29.72,SE,126,4.0,8.0,53,0.00,,CLR,0.00,476.00,VWS V14.01,2013-02-13 22:39:00,
2013-02-13 14:40:00,62.7,44.8,29.72,ESE,115,6.0,6.0,52,0.00,,CLR,0.00,476.00,VWS V14.01,2013-02-13 22:40:00,
2013-02-13 14:41:00,62.6,44.8,29.72,SE,130,3.0,6.0,52,0.00,,CLR,0.00,475.00,VWS V14.01,2013-02-13 22:41:00,
2013-02-13 14:44:00,62.4,44.6,29.72,ESE,123,2.0,6.0,52,0.00,,CLR,0.00,471.00,VWS V14.01,2013-02-13 22:44:00,
2013-02-13 14:45:00,62.3,45.0,29.72,SSE,158,1.0,6.0,53,0.00,,CLR,0.00,466.00,VWS V14.01,2013-02-13 22:45:00,
2013-02-13 14:46:00,62.4,45.1,29.72,SSE,158,1.0,6.0,53,0.00,,CLR,0.00,464.00,VWS V14.01,2013-02-13 22:46:00,
2013-02-13 14:49:00,62.5,44.7,29.72,SE,141,2.0,6.0,52,0.00,,CLR,0.00,459.00,VWS V14.01,2013-02-13 22:49:00,
2013-02-13 14:50:00,62.5,43.1,29.71,SE,124,2.0,5.0,49,0.00,,CLR,0.00,302.00,VWS V14.01,2013-02-13 22:50:00,
2013-02-13 14:51:00,62.6,44.8,29.72,SE,146,3.0,3.0,52,0.00,,CLR,0.00,455.00,VWS V14.01,2013-02-13 22:51:00,
2013-02-13 14:54:00,62.4,44.6,29.72,ESE,121,6.0,10.0,52,0.00,,CLR,0.00,448.00,VWS V14.01,2013-02-13 22:54:00,
2013-02-13 14:56:00,62.2,44.4,29.72,ESE,121,2.0,10.0,52,0.00,,CLR,0.00,443.00,VWS V14.01,2013-02-13 22:56:00,
2013-02-13 14:59:00,62.2,44.4,29.72,SSE,149,0.0,10.0,52,0.00,,CLR,0.00,436.00,VWS V14.01,2013-02-13 22:59:00,
2013-02-13 15:00:00,62.1,43.8,29.71,SE,135,0.0,4.0,51,0.00,,CLR,0.00,276.00,VWS V14.01,2013-02-13 23:00:00,
2013-02-13 15:01:00,62.3,44.0,29.71,South,171,0.0,2.0,51,0.00,,CLR,0.00,431.00,VWS V14.01,2013-02-13 23:01:00,
2013-02-13 15:04:00,62.6,44.8,29.72,ESE,106,3.0,4.0,52,0.00,,CLR,0.00,424.00,VWS V14.01,2013-02-13 23:04:00,
2013-02-13 15:06:00,62.7,44.3,29.71,South,179,0.0,4.0,51,0.00,,CLR,0.00,418.00,VWS V14.01,2013-02-13 23:06:00,
2013-02-13 15:07:00,62.8,44.9,29.71,South,179,0.0,4.0,52,0.00,,CLR,0.00,415.00,VWS V14.01,2013-02-13 23:07:00,
2013-02-13 15:09:00,62.9,44.5,29.71,South,171,1.0,5.0,51,0.00,,CLR,0.00,411.00,VWS V14.01,2013-02-13 23:09:00,
2013-02-13 15:10:00,62.2,43.3,29.71,SE,128,0.0,5.0,50,0.00,,CLR,0.00,246.00,VWS V14.01,2013-02-13 23:10:00,
2013-02-13 15:11:00,62.9,44.0,29.72,SSE,155,2.0,4.0,50,0.00,,CLR,0.00,408.00,VWS V14.01,2013-02-13 23:11:00,
2013-02-13 15:12:00,63.0,44.1,29.72,SSE,166,0.0,4.0,50,0.00,,CLR,0.00,403.00,VWS V14.01,2013-02-13 23:12:00,
2013-02-13 15:14:00,63.1,44.2,29.71,South,169,1.0,4.0,50,0.00,,CLR,0.00,399.00,VWS V14.01,2013-02-13 23:14:00,
2013-02-13 15:16:00,63.2,44.3,29.72,SSE,158,1.0,4.0,50,0.00,,CLR,0.00,394.00,VWS V14.01,2013-02-13 23:16:00,
2013-02-13 15:17:00,63.2,43.7,29.72,South,183,2.0,4.0,49,0.00,,CLR,0.00,390.00,VWS V14.01,2013-02-13 23:17:00,
2013-02-13 15:19:00,63.2,43.7,29.71,South,178,0.0,4.0,49,0.00,,CLR,0.00,387.00,VWS V14.01,2013-02-13 23:19:00,
2013-02-13 15:20:00,61.5,42.7,29.70,SSE,157,1.0,5.0,50,0.00,,CLR,0.00,216.00,VWS V14.01,2013-02-13 23:20:00,
2013-02-13 15:21:00,63.3,44.4,29.71,SE,144,0.0,1.0,50,0.00,,CLR,0.00,381.00,VWS V14.01,2013-02-13 23:21:00,
2013-02-13 15:22:00,63.3,43.8,29.71,SSW,192,1.0,3.0,49,0.00,,CLR,0.00,380.00,VWS V14.01,2013-02-13 23:22:00,
2013-02-13 15:24:00,63.4,43.9,29.71,South,179,1.0,3.0,49,0.00,,CLR,0.00,373.00,VWS V14.01,2013-02-13 23:24:00,
2013-02-13 15:26:00,63.4,43.9,29.72,SSE,153,4.0,5.0,49,0.00,,CLR,0.00,367.00,VWS V14.01,2013-02-13 23:26:00,
2013-02-13 15:27:00,63.2,43.7,29.72,SSE,157,0.0,5.0,49,0.00,,CLR,0.00,366.00,VWS V14.01,2013-02-13 23:27:00,
2013-02-13 15:29:00,63.1,43.7,29.72,South,171,1.0,5.0,49,0.00,,CLR,0.00,360.00,VWS V14.01,2013-02-13 23:29:00,
2013-02-13 15:30:00,61.5,43.2,29.71,SE,133,0.0,5.0,51,0.00,,CLR,0.00,70.00,VWS V14.01,2013-02-13 23:30:00,
2013-02-13 15:31:00,63.1,43.7,29.71,South,180,0.0,3.0,49,0.00,,CLR,0.00,353.00,VWS V14.01,2013-02-13 23:31:00,
2013-02-13 15:32:00,63.1,43.7,29.71,SSE,150,0.0,3.0,49,0.00,,CLR,0.00,352.00,VWS V14.01,2013-02-13 23:32:00,
2013-02-13 15:34:00,63.1,43.7,29.71,SSE,167,1.0,3.0,49,0.00,,CLR,0.00,346.00,VWS V14.01,2013-02-13 23:34:00,
2013-02-13 15:36:00,63.1,43.7,29.71,SSE,167,1.0,3.0,49,0.00,,CLR,0.00,343.00,VWS V14.01,2013-02-13 23:36:00,
2013-02-13 15:38:00,63.1,43.7,29.71,SSE,167,1.0,3.0,49,0.00,,CLR,0.00,338.00,VWS V14.01,2013-02-13 23:38:00,
2013-02-13 15:39:00,63.1,43.7,29.72,SSE,151,2.0,4.0,49,0.00,,CLR,0.00,332.00,VWS V14.01,2013-02-13 23:39:00,
2013-02-13 15:40:00,61.2,43.0,29.70,ESE,119,0.0,3.0,51,0.00,,CLR,0.00,42.00,VWS V14.01,2013-02-13 23:40:00,
2013-02-13 15:41:00,63.0,43.6,29.71,SSE,148,1.0,3.0,49,0.00,,CLR,0.00,327.00,VWS V14.01,2013-02-13 23:41:00,
2013-02-13 15:42:00,63.0,43.6,29.71,SSE,148,3.0,3.0,49,0.00,,CLR,0.00,325.00,VWS V14.01,2013-02-13 23:42:00,
2013-02-13 15:43:00,63.0,43.6,29.71,South,173,3.0,3.0,49,0.00,,CLR,0.00,322.00,VWS V14.01,2013-02-13 23:43:00,
2013-02-13 15:45:00,62.8,42.8,29.71,ESE,123,0.0,5.0,48,0.00,,CLR,0.00,318.00,VWS V14.01,2013-02-13 23:45:00,
2013-02-13 15:46:00,62.7,43.3,29.71,SSE,156,0.0,5.0,49,0.00,,CLR,0.00,313.00,VWS V14.01,2013-02-13 23:46:00,
2013-02-13 15:47:00,62.6,43.2,29.71,ESE,122,0.0,5.0,49,0.00,,CLR,0.00,311.00,VWS V14.01,2013-02-13 23:47:00,
2013-02-13 15:48:00,62.6,43.2,29.71,SE,137,1.0,5.0,49,0.00,,CLR,0.00,309.00,VWS V14.01,2013-02-13 23:48:00,
2013-02-13 15:50:00,62.5,43.1,29.71,SE,124,2.0,5.0,49,0.00,,CLR,0.00,304.00,VWS V14.01,2013-02-13 23:50:00,
2013-02-13 15:51:00,62.3,42.9,29.71,SE,131,1.0,4.0,49,0.00,,CLR,0.00,297.00,VWS V14.01,2013-02-13 23:51:00,
2013-02-13 15:52:00,62.2,43.3,29.71,SE,131,0.0,4.0,50,0.00,,CLR,0.00,297.00,VWS V14.01,2013-02-13 23:52:00,
2013-02-13 15:53:00,62.1,43.3,29.71,SE,127,2.0,4.0,50,0.00,,CLR,0.00,292.00,VWS V14.01,2013-02-13 23:53:00,
2013-02-13 15:55:00,62.0,43.2,29.71,SE,145,0.0,4.0,50,0.00,,CLR,0.00,290.00,VWS V14.01,2013-02-13 23:55:00,
2013-02-13 15:56:00,62.0,43.2,29.71,SE,145,0.0,4.0,50,0.00,,CLR,0.00,285.00,VWS V14.01,2013-02-13 23:56:00,
2013-02-13 15:57:00,62.0,43.2,29.71,SE,145,0.0,4.0,50,0.00,,CLR,0.00,281.00,VWS V14.01,2013-02-13 23:57:00,
2013-02-13 15:58:00,62.0,43.7,29.71,SE,145,0.0,4.0,51,0.00,,CLR,0.00,279.00,VWS V14.01,2013-02-13 23:58:00,
2013-02-13 16:00:00,62.1,43.8,29.71,SE,135,0.0,1.0,51,0.00,,CLR,0.00,272.00,VWS V14.01,2013-02-14 00:00:00,
2013-02-13 16:01:00,62.2,43.9,29.71,SE,135,0.0,1.0,51,0.00,,CLR,0.00,271.00,VWS V14.01,2013-02-14 00:01:00,
2013-02-13 16:02:00,62.2,43.9,29.71,SE,135,0.0,1.0,51,0.00,,CLR,0.00,269.00,VWS V14.01,2013-02-14 00:02:00,
2013-02-13 16:04:00,62.3,44.0,29.71,SE,135,0.0,1.0,51,0.00,,CLR,0.00,264.00,VWS V14.01,2013-02-14 00:04:00,
2013-02-13 16:05:00,62.4,43.5,29.71,SE,135,2.0,4.0,50,0.00,,CLR,0.00,262.00,VWS V14.01,2013-02-14 00:05:00,
2013-02-13 16:07:00,62.4,43.5,29.71,SE,134,4.0,4.0,50,0.00,,CLR,0.00,257.00,VWS V14.01,2013-02-14 00:07:00,
2013-02-13 16:09:00,62.2,43.3,29.71,SE,128,0.0,5.0,50,0.00,,CLR,0.00,250.00,VWS V14.01,2013-02-14 00:09:00,
2013-02-13 16:10:00,62.2,43.3,29.71,SE,128,4.0,4.0,50,0.00,,CLR,0.00,244.00,VWS V14.01,2013-02-14 00:10:00,
2013-02-13 16:12:00,62.1,43.3,29.71,ESE,122,2.0,5.0,50,0.00,,CLR,0.00,241.00,VWS V14.01,2013-02-14 00:12:00,
2013-02-13 16:14:00,61.9,43.1,29.70,ESE,123,1.0,5.0,50,0.00,,CLR,0.00,234.00,VWS V14.01,2013-02-14 00:14:00,
2013-02-13 16:15:00,61.8,43.0,29.70,ESE,123,1.0,5.0,50,0.00,,CLR,0.00,229.00,VWS V14.01,2013-02-14 00:15:00,
2013-02-13 16:17:00,61.7,42.9,29.70,SE,138,0.0,5.0,50,0.00,,CLR,0.00,227.00,VWS V14.01,2013-02-14 00:17:00,
2013-02-13 16:19:00,61.5,42.7,29.70,SSE,157,0.0,5.0,50,0.00,,CLR,0.00,218.00,VWS V14.01,2013-02-14 00:19:00,
2013-02-13 16:20:00,61.5,42.7,29.70,SSE,157,0.0,1.0,50,0.00,,CLR,0.00,216.00,VWS V14.01,2013-02-14 00:20:00,
2013-02-13 16:22:00,61.5,43.2,29.70,SE,132,5.0,5.0,51,0.00,,CLR,0.00,211.00,VWS V14.01,2013-02-14 00:22:00,
2013-02-13 16:24:00,61.5,43.2,29.70,SE,132,0.0,5.0,51,0.00,,CLR,0.00,204.00,VWS V14.01,2013-02-14 00:24:00,
2013-02-13 16:26:00,61.5,43.2,29.71,SE,132,2.0,5.0,51,0.00,,CLR,0.00,162.00,VWS V14.01,2013-02-14 00:26:00,
2013-02-13 16:27:00,61.5,43.2,29.70,SE,133,2.0,5.0,51,0.00,,CLR,0.00,97.00,VWS V14.01,2013-02-14 00:27:00,
2013-02-13 16:30:00,61.5,43.2,29.71,SE,133,0.0,5.0,51,0.00,,CLR,0.00,70.00,VWS V14.01,2013-02-14 00:30:00,
2013-02-13 16:31:00,61.5,43.2,29.71,SE,133,0.0,0.0,51,0.00,,CLR,0.00,42.00,VWS V14.01,2013-02-14 00:31:00,
2013-02-13 16:32:00,61.5,43.2,29.70,SE,133,0.0,0.0,51,0.00,,CLR,0.00,40.00,VWS V14.01,2013-02-14 00:32:00,
2013-02-13 16:35:00,61.4,43.1,29.70,SSE,155,0.0,2.0,51,0.00,,CLR,0.00,44.00,VWS V14.01,2013-02-14 00:35:00,
2013-02-13 16:36:00,61.4,43.1,29.70,ESE,117,2.0,2.0,51,0.00,,CLR,0.00,44.00,VWS V14.01,2013-02-14 00:36:00,
2013-02-13 16:37:00,61.4,43.1,29.71,ESE,117,3.0,3.0,51,0.00,,CLR,0.00,49.00,VWS V14.01,2013-02-14 00:37:00,
2013-02-13 16:40:00,61.2,43.0,29.70,ESE,119,0.0,3.0,51,0.00,,CLR,0.00,42.00,VWS V14.01,2013-02-14 00:40:00,
2013-02-13 16:41:00,61.1,42.8,29.70,ESE,119,0.0,0.0,51,0.00,,CLR,0.00,76.00,VWS V14.01,2013-02-14 00:41:00,
2013-02-13 16:42:00,61.1,43.4,29.70,ESE,119,0.0,0.0,52,0.00,,CLR,0.00,76.00,VWS V14.01,2013-02-14 00:42:00,
2013-02-13 16:43:00,61.1,43.4,29.70,SE,138,0.0,1.0,52,0.00,,CLR,0.00,90.00,VWS V14.01,2013-02-14 00:43:00,
2013-02-13 16:45:00,61.1,43.4,29.70,SE,138,0.0,1.0,52,0.00,,CLR,0.00,111.00,VWS V14.01,2013-02-14 00:45:00,
2013-02-13 16:46:00,61.0,43.3,29.70,SE,138,0.0,2.0,52,0.00,,CLR,0.00,69.00,VWS V14.01,2013-02-14 00:46:00,
2013-02-13 16:47:00,61.0,43.3,29.70,SE,138,0.0,2.0,52,0.00,,CLR,0.00,69.00,VWS V14.01,2013-02-14 00:47:00,
2013-02-13 16:48:00,61.0,43.3,29.70,SE,138,2.0,3.0,52,0.00,,CLR,0.00,40.00,VWS V14.01,2013-02-14 00:48:00,
2013-02-13 16:50:00,60.9,43.2,29.70,SE,138,0.0,3.0,52,0.00,,CLR,0.00,37.00,VWS V14.01,2013-02-14 00:50:00,
2013-02-13 16:51:00,60.8,43.1,29.70,SE,138,0.0,4.0,52,0.00,,CLR,0.00,32.00,VWS V14.01,2013-02-14 00:51:00,
2013-02-13 16:52:00,60.7,43.0,29.70,SSE,159,2.0,4.0,52,0.00,,CLR,0.00,32.00,VWS V14.01,2013-02-14 00:52:00,
2013-02-13 16:53:00,60.7,43.0,29.70,SSE,164,0.0,4.0,52,0.00,,CLR,0.00,33.00,VWS V14.01,2013-02-14 00:53:00,
2013-02-13 16:55:00,60.5,42.8,29.70,SSE,147,0.0,4.0,52,0.00,,CLR,0.00,30.00,VWS V14.01,2013-02-14 00:55:00,
2013-02-13 16:57:00,60.4,42.7,29.70,SSE,147,0.0,4.0,52,0.00,,CLR,0.00,28.00,VWS V14.01,2013-02-14 00:57:00,
2013-02-13 16:58:00,60.3,43.1,29.70,SSE,147,0.0,4.0,53,0.00,,CLR,0.00,28.00,VWS V14.01,2013-02-14 00:58:00,
2013-02-13 17:00:00,60.2,43.0,29.70,SSE,147,0.0,1.0,53,0.00,,CLR,0.00,28.00,VWS V14.01,2013-02-14 01:00:00,
2013-02-13 17:02:00,60.0,42.8,29.70,SSE,150,1.0,2.0,53,0.00,,CLR,0.00,32.00,VWS V14.01,2013-02-14 01:02:00,
2013-02-13 17:03:00,60.0,42.8,29.70,SSE,150,1.0,2.0,53,0.00,,CLR,0.00,28.00,VWS V14.01,2013-02-14 01:03:00,
2013-02-13 17:05:00,59.9,42.7,29.70,SE,133,1.0,2.0,53,0.00,,CLR,0.00,35.00,VWS V14.01,2013-02-14 01:05:00,
2013-02-13 17:07:00,59.8,42.7,29.70,SE,136,0.0,3.0,53,0.00,,CLR,0.00,26.00,VWS V14.01,2013-02-14 01:07:00,
2013-02-13 17:08:00,59.7,43.0,29.70,SE,136,0.0,3.0,54,0.00,,CLR,0.00,33.00,VWS V14.01,2013-02-14 01:08:00,
2013-02-13 17:10:00,59.6,43.0,29.70,SE,136,0.0,0.0,54,0.00,,CLR,0.00,39.00,VWS V14.01,2013-02-14 01:10:00,
2013-02-13 17:12:00,59.6,43.0,29.70,SE,136,0.0,2.0,54,0.00,,CLR,0.00,30.00,VWS V14.01,2013-02-14 01:12:00,
2013-02-13 17:13:00,59.5,42.9,29.70,SE,136,0.0,2.0,54,0.00,,CLR,0.00,33.00,VWS V14.01,2013-02-14 01:13:00,
2013-02-13 17:15:00,59.4,42.8,29.70,SE,126,2.0,4.0,54,0.00,,CLR,0.00,40.00,VWS V14.01,2013-02-14 01:15:00,
2013-02-13 17:17:00,59.3,43.2,29.70,SE,126,0.0,4.0,55,0.00,,CLR,0.00,35.00,VWS V14.01,2013-02-14 01:17:00,
2013-02-13 17:18:00,59.2,43.1,29.70,SE,126,0.0,4.0,55,0.00,,CLR,0.00,30.00,VWS V14.01,2013-02-14 01:18:00,
2013-02-13 17:20:00,53.8,42.7,29.70,ESE,123,0.0,0.0,66,0.00,,CLR,0.00,0.00,VWS V14.01,2013-02-14 01:20:00,
2013-02-13 17:21:00,59.1,43.0,29.70,SE,126,0.0,0.0,55,0.00,,CLR,0.00,19.00,VWS V14.01,2013-02-14 01:21:00,
2013-02-13 17:22:00,59.0,42.9,29.70,SE,126,0.0,0.0,55,0.00,,CLR,0.00,19.00,VWS V14.01,2013-02-14 01:22:00,
2013-02-13 17:23:00,58.9,43.2,29.70,SE,126,0.0,0.0,56,0.00,,CLR,0.00,18.00,VWS V14.01,2013-02-14 01:23:00,
2013-02-13 17:26:00,58.8,43.2,29.70,SE,126,1.0,2.0,56,0.00,,CLR,0.00,16.00,VWS V14.01,2013-02-14 01:26:00,
2013-02-13 17:27:00,58.7,43.1,29.70,SE,126,0.0,2.0,56,0.00,,CLR,0.00,16.00,VWS V14.01,2013-02-14 01:27:00,
2013-02-13 17:29:00,58.6,43.0,29.70,SE,126,0.0,2.0,56,0.00,,CLR,0.00,14.00,VWS V14.01,2013-02-14 01:29:00,
2013-02-13 17:30:00,52.8,42.5,29.71,ESE,123,0.0,0.0,68,0.00,,CLR,0.00,0.00,VWS V14.01,2013-02-14 01:30:00,
2013-02-13 17:31:00,58.4,43.2,29.70,SE,126,0.0,1.0,57,0.00,,CLR,0.00,14.00,VWS V14.01,2013-02-14 01:31:00,
2013-02-13 17:32:00,58.2,43.1,29.70,SE,126,0.0,1.0,57,0.00,,CLR,0.00,12.00,VWS V14.01,2013-02-14 01:32:00,
2013-02-13 17:34:00,58.0,42.9,29.70,SE,126,0.0,1.0,57,0.00,,CLR,0.00,12.00,VWS V14.01,2013-02-14 01:34:00,
2013-02-13 17:36:00,57.7,43.0,29.70,ESE,123,0.0,4.0,58,0.00,,CLR,0.00,11.00,VWS V14.01,2013-02-14 01:36:00,
2013-02-13 17:37:00,57.7,43.0,29.70,ESE,123,0.0,4.0,58,0.00,,CLR,0.00,11.00,VWS V14.01,2013-02-14 01:37:00,
2013-02-13 17:38:00,57.6,43.0,29.70,ESE,123,0.0,4.0,58,0.00,,CLR,0.00,9.00,VWS V14.01,2013-02-14 01:38:00,
2013-02-13 17:39:00,57.5,42.8,29.70,ESE,123,0.0,4.0,58,0.00,,CLR,0.00,9.00,VWS V14.01,2013-02-14 01:39:00,
2013-02-13 17:40:00,52.0,42.5,29.71,ESE,123,0.0,0.0,70,0.00,,CLR,0.00,0.00,VWS V14.01,2013-02-14 01:40:00,
2013-02-13 17:41:00,57.2,43.0,29.70,ESE,123,0.0,1.0,59,0.00,,CLR,0.00,7.00,VWS V14.01,2013-02-14 01:41:00,
2013-02-13 17:42:00,57.1,43.4,29.70,ESE,123,0.0,1.0,60,0.00,,CLR,0.00,7.00,VWS V14.01,2013-02-14 01:42:00,
2013-02-13 17:43:00,57.1,43.4,29.70,ESE,123,0.0,1.0,60,0.00,,CLR,0.00,7.00,VWS V14.01,2013-02-14 01:43:00,
2013-02-13 17:44:00,57.0,43.3,29.70,ESE,123,0.0,1.0,60,0.00,,CLR,0.00,7.00,VWS V14.01,2013-02-14 01:44:00,
2013-02-13 17:46:00,56.8,43.1,29.70,ESE,123,0.0,1.0,60,0.00,,CLR,0.00,5.00,VWS V14.01,2013-02-14 01:46:00,
2013-02-13 17:47:00,56.7,43.4,29.70,ESE,123,0.0,1.0,61,0.00,,CLR,0.00,5.00,VWS V14.01,2013-02-14 01:47:00,
2013-02-13 17:48:00,56.6,43.3,29.70,ESE,123,0.0,1.0,61,0.00,,CLR,0.00,5.00,VWS V14.01,2013-02-14 01:48:00,
2013-02-13 17:49:00,56.5,43.2,29.70,ESE,123,0.0,1.0,61,0.00,,CLR,0.00,0.00,VWS V14.01,2013-02-14 01:49:00,
2013-02-13 17:50:00,51.1,42.0,29.71,ESE,123,0.0,0.0,71,0.00,,CLR,0.00,0.00,VWS V14.01,2013-02-14 01:50:00,
2013-02-13 17:51:00,56.3,43.0,29.70,ESE,123,0.0,0.0,61,0.00,,CLR,0.00,0.00,VWS V14.01,2013-02-14 01:51:00,
2013-02-13 17:52:00,56.2,43.0,29.70,ESE,123,0.0,0.0,61,0.00,,CLR,0.00,0.00,VWS V14.01,2013-02-14 01:52:00,
2013-02-13 17:53:00,56.2,43.0,29.70,ESE,123,0.0,0.0,61,0.00,,CLR,0.00,0.00,VWS V14.01,2013-02-14 01:53:00,
2013-02-13 17:54:00,56.1,43.3,29.70,ESE,123,0.0,0.0,62,0.00,,CLR,0.00,0.00,VWS V14.01,2013-02-14 01:54:00,
2013-02-13 17:56:00,55.9,43.1,29.70,ESE,123,0.0,0.0,62,0.00,,CLR,0.00,0.00,VWS V14.01,2013-02-14 01:56:00,
2013-02-13 17:57:00,55.8,43.0,29.70,ESE,123,0.0,0.0,62,0.00,,CLR,0.00,0.00,VWS V14.01,2013-02-14 01:57:00,
2013-02-13 17:58:00,55.7,42.9,29.70,ESE,123,0.0,0.0,62,0.00,,CLR,0.00,0.00,VWS V14.01,2013-02-14 01:58:00,
2013-02-13 17:59:00,55.6,42.8,29.70,ESE,123,0.0,0.0,62,0.00,,CLR,0.00,0.00,VWS V14.01,2013-02-14 01:59:00,
2013-02-13 18:00:00,50.5,41.8,29.70,ESE,123,0.0,0.0,72,0.00,,CLR,0.00,0.00,VWS V14.01,2013-02-14 02:00:00,
2013-02-13 18:01:00,55.4,43.0,29.70,ESE,123,0.0,0.0,63,0.00,,CLR,0.00,0.00,VWS V14.01,2013-02-14 02:01:00,
2013-02-13 18:03:00,55.3,42.9,29.70,ESE,123,0.0,0.0,63,0.00,,CLR,0.00,0.00,VWS V14.01,2013-02-14 02:03:00,
2013-02-13 18:04:00,55.2,42.8,29.70,ESE,123,0.0,0.0,63,0.00,,CLR,0.00,0.00,VWS V14.01,2013-02-14 02:04:00,
2013-02-13 18:06:00,55.0,42.7,29.70,ESE,123,0.0,0.0,63,0.00,,CLR,0.00,0.00,VWS V14.01,2013-02-14 02:06:00,
2013-02-13 18:08:00,54.9,43.0,29.70,ESE,123,0.0,0.0,64,0.00,,CLR,0.00,0.00,VWS V14.01,2013-02-14 02:08:00,
2013-02-13 18:09:00,54.7,42.8,29.70,ESE,123,0.0,0.0,64,0.00,,CLR,0.00,0.00,VWS V14.01,2013-02-14 02:09:00,
2013-02-13 18:10:00,49.9,41.6,29.71,ESE,123,0.0,0.0,73,0.00,,CLR,0.00,0.00,VWS V14.01,2013-02-14 02:10:00,
2013-02-13 18:11:00,54.5,42.6,29.70,ESE,123,0.0,0.0,64,0.00,,CLR,0.00,0.00,VWS V14.01,2013-02-14 02:11:00,
2013-02-13 18:13:00,54.4,42.5,29.70,ESE,123,0.0,0.0,64,0.00,,CLR,0.00,0.00,VWS V14.01,2013-02-14 02:13:00,
2013-02-13 18:15:00,54.2,42.3,29.70,ESE,123,0.0,0.0,64,0.00,,CLR,0.00,0.00,VWS V14.01,2013-02-14 02:15:00,
2013-02-13 18:16:00,54.1,42.6,29.70,ESE,123,0.0,0.0,65,0.00,,CLR,0.00,0.00,VWS V14.01,2013-02-14 02:16:00,
2013-02-13 18:18:00,54.0,42.5,29.70,ESE,123,0.0,0.0,65,0.00,,CLR,0.00,0.00,VWS V14.01,2013-02-14 02:18:00,
2013-02-13 18:20:00,53.8,42.7,29.70,ESE,123,0.0,0.0,66,0.00,,CLR,0.00,0.00,VWS V14.01,2013-02-14 02:20:00,
2013-02-13 18:22:00,53.5,42.8,29.70,ESE,123,0.0,0.0,67,0.00,,CLR,0.00,0.00,VWS V14.01,2013-02-14 02:22:00,
2013-02-13 18:23:00,53.4,42.7,29.70,ESE,123,0.0,0.0,67,0.00,,CLR,0.00,0.00,VWS V14.01,2013-02-14 02:23:00,
2013-02-13 18:25:00,53.2,42.5,29.70,ESE,123,0.0,0.0,67,0.00,,CLR,0.00,0.00,VWS V14.01,2013-02-14 02:25:00,
2013-02-13 18:27:00,53.0,42.3,29.70,ESE,123,0.0,0.0,67,0.00,,CLR,0.00,0.00,VWS V14.01,2013-02-14 02:27:00,
2013-02-13 18:28:00,52.9,42.6,29.70,ESE,123,0.0,0.0,68,0.00,,CLR,0.00,0.00,VWS V14.01,2013-02-14 02:28:00,
2013-02-13 18:30:00,52.8,42.5,29.71,ESE,123,0.0,0.0,68,0.00,,CLR,0.00,0.00,VWS V14.01,2013-02-14 02:30:00,
2013-02-13 18:32:00,52.6,42.3,29.71,ESE,123,0.0,0.0,68,0.00,,CLR,0.00,0.00,VWS V14.01,2013-02-14 02:32:00,
2013-02-13 18:33:00,52.5,42.3,29.71,ESE,123,0.0,0.0,68,0.00,,CLR,0.00,0.00,VWS V14.01,2013-02-14 02:33:00,
2013-02-13 18:35:00,52.4,42.2,29.71,ESE,123,0.0,0.0,68,0.00,,CLR,0.00,0.00,VWS V14.01,2013-02-14 02:35:00,
2013-02-13 18:37:00,52.2,42.3,29.71,ESE,123,0.0,0.0,69,0.00,,CLR,0.00,0.00,VWS V14.01,2013-02-14 02:37:00,
2013-02-13 18:38:00,52.1,42.2,29.71,ESE,123,0.0,0.0,69,0.00,,CLR,0.00,0.00,VWS V14.01,2013-02-14 02:38:00,
2013-02-13 18:39:00,52.1,42.2,29.71,ESE,123,0.0,0.0,69,0.00,,CLR,0.00,0.00,VWS V14.01,2013-02-14 02:39:00,
2013-02-13 18:40:00,52.0,42.5,29.71,ESE,123,0.0,0.0,70,0.00,,CLR,0.00,0.00,VWS V14.01,2013-02-14 02:40:00,
2013-02-13 18:42:00,51.8,42.3,29.71,ESE,123,0.0,0.0,70,0.00,,CLR,0.00,0.00,VWS V14.01,2013-02-14 02:42:00,
2013-02-13 18:43:00,51.7,42.2,29.71,ESE,123,0.0,0.0,70,0.00,,CLR,0.00,0.00,VWS V14.01,2013-02-14 02:43:00,
2013-02-13 18:44:00,51.7,42.2,29.71,ESE,123,0.0,0.0,70,0.00,,CLR,0.00,0.00,VWS V14.01,2013-02-14 02:44:00,
2013-02-13 18:45:00,51.5,42.0,29.71,ESE,123,0.0,0.0,70,0.00,,CLR,0.00,0.00,VWS V14.01,2013-02-14 02:45:00,
2013-02-13 18:47:00,51.3,42.2,29.71,ESE,123,0.0,0.0,71,0.00,,CLR,0.00,0.00,VWS V14.01,2013-02-14 02:47:00,
2013-02-13 18:48:00,51.2,42.1,29.71,ESE,123,0.0,0.0,71,0.00,,CLR,0.00,0.00,VWS V14.01,2013-02-14 02:48:00,
2013-02-13 18:49:00,51.2,42.1,29.71,ESE,123,0.0,0.0,71,0.00,,CLR,0.00,0.00,VWS V14.01,2013-02-14 02:49:00,
2013-02-13 18:50:00,51.1,42.0,29.71,ESE,123,0.0,0.0,71,0.00,,CLR,0.00,0.00,VWS V14.01,2013-02-14 02:50:00,
2013-02-13 18:52:00,50.9,41.8,29.71,ESE,123,0.0,0.0,71,0.00,,CLR,0.00,0.00,VWS V14.01,2013-02-14 02:52:00,
2013-02-13 18:53:00,50.9,41.8,29.70,ESE,123,0.0,0.0,71,0.00,,CLR,0.00,0.00,VWS V14.01,2013-02-14 02:53:00,
2013-02-13 18:54:00,50.8,41.8,29.71,ESE,123,0.0,0.0,71,0.00,,CLR,0.00,0.00,VWS V14.01,2013-02-14 02:54:00,
2013-02-13 18:56:00,50.7,41.7,29.71,ESE,123,0.0,0.0,71,0.00,,CLR,0.00,0.00,VWS V14.01,2013-02-14 02:56:00,
2013-02-13 18:58:00,50.6,41.6,29.71,ESE,123,0.0,0.0,71,0.00,,CLR,0.00,0.00,VWS V14.01,2013-02-14 02:58:00,
2013-02-13 18:59:00,50.5,41.8,29.70,ESE,123,0.0,0.0,72,0.00,,CLR,0.00,0.00,VWS V14.01,2013-02-14 02:59:00,
2013-02-13 19:00:00,47.5,41.3,29.72,ESE,123,0.0,0.0,79,0.00,,CLR,0.00,0.00,VWS V14.01,2013-02-14 03:00:00,
2013-02-13 19:01:00,50.4,41.7,29.71,ESE,123,0.0,0.0,72,0.00,,CLR,0.00,0.00,VWS V14.01,2013-02-14 03:01:00,
2013-02-13 19:03:00,50.3,42.0,29.71,ESE,123,0.0,0.0,73,0.00,,CLR,0.00,0.00,VWS V14.01,2013-02-14 03:03:00,
2013-02-13 19:04:00,50.2,41.9,29.71,ESE,123,0.0,0.0,73,0.00,,CLR,0.00,0.00,VWS V14.01,2013-02-14 03:04:00,
2013-02-13 19:06:00,50.0,41.7,29.71,ESE,123,0.0,0.0,73,0.00,,CLR,0.00,0.00,VWS V14.01,2013-02-14 03:06:00,
2013-02-13 19:08:00,50.0,41.7,29.71,ESE,123,0.0,0.0,73,0.00,,CLR,0.00,0.00,VWS V14.01,2013-02-14 03:08:00,
2013-02-13 19:09:00,49.9,41.6,29.71,ESE,123,0.0,0.0,73,0.00,,CLR,0.00,0.00,VWS V14.01,2013-02-14 03:09:00,
2013-02-13 19:10:00,47.1,41.3,29.72,ESE,123,0.0,0.0,80,0.00,,CLR,0.00,0.00,VWS V14.01,2013-02-14 03:10:00,
2013-02-13 19:11:00,49.8,41.9,29.71,ESE,123,0.0,0.0,74,0.00,,CLR,0.00,0.00,VWS V14.01,2013-02-14 03:11:00,
2013-02-13 19:13:00,49.7,41.8,29.71,ESE,123,0.0,0.0,74,0.00,,CLR,0.00,0.00,VWS V14.01,2013-02-14 03:13:00,
2013-02-13 19:14:00,49.6,41.7,29.71,ESE,123,0.0,0.0,74,0.00,,CLR,0.00,0.00,VWS V14.01,2013-02-14 03:14:00,
2013-02-13 19:16:00,49.4,41.5,29.71,ESE,123,0.0,1.0,74,0.00,,CLR,0.00,0.00,VWS V14.01,2013-02-14 03:16:00,
2013-02-13 19:18:00,49.4,41.8,29.71,ESE,123,0.0,1.0,75,0.00,,CLR,0.00,0.00,VWS V14.01,2013-02-14 03:18:00,
2013-02-13 19:19:00,49.3,41.7,29.71,ESE,123,0.0,1.0,75,0.00,,CLR,0.00,0.00,VWS V14.01,2013-02-14 03:19:00,
2013-02-13 19:20:00,46.6,41.1,29.72,ESE,123,0.0,0.0,81,0.00,,CLR,0.00,0.00,VWS V14.01,2013-02-14 03:20:00,
2013-02-13 19:21:00,49.2,41.6,29.71,ESE,123,0.0,0.0,75,0.00,,CLR,0.00,0.00,VWS V14.01,2013-02-14 03:21:00,
2013-02-13 19:23:00,49.1,41.5,29.71,ESE,123,0.0,0.0,75,0.00,,CLR,0.00,0.00,VWS V14.01,2013-02-14 03:23:00,
2013-02-13 19:24:00,49.0,41.4,29.71,ESE,123,0.0,0.0,75,0.00,,CLR,0.00,0.00,VWS V14.01,2013-02-14 03:24:00,
2013-02-13 19:26:00,48.9,41.3,29.71,ESE,123,0.0,0.0,75,0.00,,CLR,0.00,0.00,VWS V14.01,2013-02-14 03:26:00,
2013-02-13 19:28:00,48.9,41.3,29.71,ESE,123,0.0,0.0,75,0.00,,CLR,0.00,0.00,VWS V14.01,2013-02-14 03:28:00,
2013-02-13 19:29:00,48.8,41.6,29.71,ESE,123,0.0,0.0,76,0.00,,CLR,0.00,0.00,VWS V14.01,2013-02-14 03:29:00,
2013-02-13 19:30:00,46.2,41.0,29.72,ESE,123,0.0,0.0,82,0.00,,CLR,0.00,0.00,VWS V14.01,2013-02-14 03:30:00,
2013-02-13 19:31:00,48.7,41.5,29.71,ESE,123,0.0,0.0,76,0.00,,CLR,0.00,0.00,VWS V14.01,2013-02-14 03:31:00,
2013-02-13 19:33:00,48.7,41.8,29.71,ESE,123,0.0,0.0,77,0.00,,CLR,0.00,0.00,VWS V14.01,2013-02-14 03:33:00,
2013-02-13 19:34:00,48.6,41.7,29.71,ESE,123,0.0,0.0,77,0.00,,CLR,0.00,0.00,VWS V14.01,2013-02-14 03:34:00,
2013-02-13 19:36:00,48.5,41.6,29.71,ESE,123,0.0,0.0,77,0.00,,CLR,0.00,0.00,VWS V14.01,2013-02-14 03:36:00,
2013-02-13 19:38:00,48.5,42.0,29.71,ESE,123,0.0,0.0,78,0.00,,CLR,0.00,0.00,VWS V14.01,2013-02-14 03:38:00,
2013-02-13 19:39:00,48.4,41.9,29.71,ESE,123,0.0,0.0,78,0.00,,CLR,0.00,0.00,VWS V14.01,2013-02-14 03:39:00,
2013-02-13 19:40:00,45.7,40.8,29.72,ESE,123,0.0,0.0,83,0.00,,CLR,0.00,0.00,VWS V14.01,2013-02-14 03:40:00,
2013-02-13 19:41:00,48.3,41.8,29.71,ESE,123,0.0,0.0,78,0.00,,CLR,0.00,0.00,VWS V14.01,2013-02-14 03:41:00,
2013-02-13 19:43:00,48.3,41.8,29.71,ESE,123,0.0,0.0,78,0.00,,CLR,0.00,0.00,VWS V14.01,2013-02-14 03:43:00,
2013-02-13 19:44:00,48.3,41.8,29.71,ESE,123,0.0,0.0,78,0.00,,CLR,0.00,0.00,VWS V14.01,2013-02-14 03:44:00,
2013-02-13 19:46:00,48.2,41.7,29.72,ESE,123,0.0,0.0,78,0.00,,CLR,0.00,0.00,VWS V14.01,2013-02-14 03:46:00,
2013-02-13 19:48:00,48.1,41.6,29.71,ESE,123,0.0,0.0,78,0.00,,CLR,0.00,0.00,VWS V14.01,2013-02-14 03:48:00,
2013-02-13 19:49:00,48.1,41.6,29.71,ESE,123,0.0,0.0,78,0.00,,CLR,0.00,0.00,VWS V14.01,2013-02-14 03:49:00,
2013-02-13 19:50:00,45.2,40.3,29.71,ESE,123,0.0,0.0,83,0.00,,CLR,0.00,0.00,VWS V14.01,2013-02-14 03:50:00,
2013-02-13 19:52:00,47.9,41.7,29.71,ESE,123,0.0,0.0,79,0.00,,CLR,0.00,0.00,VWS V14.01,2013-02-14 03:52:00,
2013-02-13 19:53:00,47.9,41.4,29.71,ESE,123,0.0,0.0,78,0.00,,CLR,0.00,0.00,VWS V14.01,2013-02-14 03:53:00,
2013-02-13 19:54:00,47.8,41.6,29.72,ESE,123,0.0,0.0,79,0.00,,CLR,0.00,0.00,VWS V14.01,2013-02-14 03:54:00,
2013-02-13 19:57:00,47.7,41.5,29.72,ESE,123,0.0,0.0,79,0.00,,CLR,0.00,0.00,VWS V14.01,2013-02-14 03:57:00,
2013-02-13 19:58:00,47.6,41.4,29.72,ESE,123,0.0,0.0,79,0.00,,CLR,0.00,0.00,VWS V14.01,2013-02-14 03:58:00,
2013-02-13 19:59:00,47.6,41.4,29.72,ESE,123,0.0,0.0,79,0.00,,CLR,0.00,0.00,VWS V14.01,2013-02-14 03:59:00,
2013-02-13 20:00:00,44.9,40.4,29.72,ESE,123,0.0,0.0,84,0.00,,CLR,0.00,0.00,VWS V14.01,2013-02-14 04:00:00,
2013-02-13 20:02:00,47.4,41.5,29.72,ESE,123,0.0,0.0,80,0.00,,CLR,0.00,0.00,VWS V14.01,2013-02-14 04:02:00,
2013-02-13 20:03:00,47.4,41.5,29.72,ESE,123,0.0,0.0,80,0.00,,CLR,0.00,0.00,VWS V14.01,2013-02-14 04:03:00,
2013-02-13 20:04:00,47.3,41.5,29.72,ESE,123,0.0,0.0,80,0.00,,CLR,0.00,0.00,VWS V14.01,2013-02-14 04:04:00,
2013-02-13 20:07:00,47.2,41.4,29.72,ESE,123,0.0,0.0,80,0.00,,CLR,0.00,0.00,VWS V14.01,2013-02-14 04:07:00,
2013-02-13 20:08:00,47.1,41.3,29.72,ESE,123,0.0,0.0,80,0.00,,CLR,0.00,0.00,VWS V14.01,2013-02-14 04:08:00,
2013-02-13 20:09:00,47.1,41.3,29.72,ESE,123,0.0,0.0,80,0.00,,CLR,0.00,0.00,VWS V14.01,2013-02-14 04:09:00,
2013-02-13 20:10:00,47.1,41.3,29.72,ESE,123,0.0,0.0,80,0.00,,CLR,0.00,0.00,VWS V14.01,2013-02-14 04:10:00,
2013-02-13 20:12:00,47.0,41.2,29.72,ESE,123,0.0,0.0,80,0.00,,CLR,0.00,0.00,VWS V14.01,2013-02-14 04:12:00,
2013-02-13 20:13:00,46.9,41.1,29.72,ESE,123,0.0,0.0,80,0.00,,CLR,0.00,0.00,VWS V14.01,2013-02-14 04:13:00,
2013-02-13 20:14:00,46.8,41.0,29.72,ESE,123,0.0,0.0,80,0.00,,CLR,0.00,0.00,VWS V14.01,2013-02-14 04:14:00,
2013-02-13 20:15:00,46.8,41.0,29.72,ESE,123,0.0,0.0,80,0.00,,CLR,0.00,0.00,VWS V14.01,2013-02-14 04:15:00,
2013-02-13 20:17:00,46.7,41.2,29.72,ESE,123,0.0,0.0,81,0.00,,CLR,0.00,0.00,VWS V14.01,2013-02-14 04:17:00,
2013-02-13 20:19:00,46.6,41.1,29.72,ESE,123,0.0,0.0,81,0.00,,CLR,0.00,0.00,VWS V14.01,2013-02-14 04:19:00,
2013-02-13 20:20:00,46.6,41.1,29.72,ESE,123,0.0,0.0,81,0.00,,CLR,0.00,0.00,VWS V14.01,2013-02-14 04:20:00,
2013-02-13 20:23:00,46.5,41.0,29.72,ESE,123,0.0,0.0,81,0.00,,CLR,0.00,0.00,VWS V14.01,2013-02-14 04:23:00,
2013-02-13 20:24:00,46.4,40.9,29.71,ESE,123,0.0,0.0,81,0.00,,CLR,0.00,0.00,VWS V14.01,2013-02-14 04:24:00,
2013-02-13 20:25:00,46.4,40.9,29.71,ESE,123,0.0,0.0,81,0.00,,CLR,0.00,0.00,VWS V14.01,2013-02-14 04:25:00,
2013-02-13 20:28:00,46.3,41.1,29.72,ESE,123,0.0,0.0,82,0.00,,CLR,0.00,0.00,VWS V14.01,2013-02-14 04:28:00,
2013-02-13 20:29:00,46.2,41.0,29.72,ESE,123,0.0,0.0,82,0.00,,CLR,0.00,0.00,VWS V14.01,2013-02-14 04:29:00,
2013-02-13 20:30:00,46.2,41.0,29.71,ESE,123,0.0,0.0,82,0.00,,CLR,0.00,0.00,VWS V14.01,2013-02-14 04:30:00,
2013-02-13 20:33:00,46.0,40.8,29.71,ESE,123,0.0,0.0,82,0.00,,CLR,0.00,0.00,VWS V14.01,2013-02-14 04:33:00,
2013-02-13 20:34:00,46.0,40.8,29.71,ESE,123,0.0,0.0,82,0.00,,CLR,0.00,0.00,VWS V14.01,2013-02-14 04:34:00,
2013-02-13 20:35:00,46.0,40.8,29.71,ESE,123,0.0,0.0,82,0.00,,CLR,0.00,0.00,VWS V14.01,2013-02-14 04:35:00,
2013-02-13 20:38:00,45.8,40.6,29.71,ESE,123,0.0,0.0,82,0.00,,CLR,0.00,0.00,VWS V14.01,2013-02-14 04:38:00,
2013-02-13 20:39:00,45.7,40.8,29.72,ESE,123,0.0,0.0,83,0.00,,CLR,0.00,0.00,VWS V14.01,2013-02-14 04:39:00,
2013-02-13 20:40:00,45.8,40.9,29.72,ESE,123,0.0,0.0,83,0.00,,CLR,0.00,0.00,VWS V14.01,2013-02-14 04:40:00,
2013-02-13 20:43:00,45.6,40.7,29.71,ESE,123,0.0,0.0,83,0.00,,CLR,0.00,0.00,VWS V14.01,2013-02-14 04:43:00,
2013-02-13 20:44:00,45.5,40.7,29.72,ESE,123,0.0,0.0,83,0.00,,CLR,0.00,0.00,VWS V14.01,2013-02-14 04:44:00,
2013-02-13 20:45:00,45.5,40.7,29.72,ESE,123,0.0,0.0,83,0.00,,CLR,0.00,0.00,VWS V14.01,2013-02-14 04:45:00,
2013-02-13 20:48:00,45.3,40.5,29.71,ESE,123,0.0,0.0,83,0.00,,CLR,0.00,0.00,VWS V14.01,2013-02-14 04:48:00,
2013-02-13 20:49:00,45.2,40.3,29.71,ESE,123,0.0,0.0,83,0.00,,CLR,0.00,0.00,VWS V14.01,2013-02-14 04:49:00,
2013-02-13 20:50:00,45.2,40.3,29.71,ESE,123,0.0,0.0,83,0.00,,CLR,0.00,0.00,VWS V14.01,2013-02-14 04:50:00,
2013-02-13 20:53:00,45.1,40.6,29.72,ESE,123,0.0,0.0,84,0.00,,CLR,0.00,0.00,VWS V14.01,2013-02-14 04:53:00,
2013-02-13 20:54:00,45.1,40.6,29.72,ESE,123,0.0,0.0,84,0.00,,CLR,0.00,0.00,VWS V14.01,2013-02-14 04:54:00,
2013-02-13 20:55:00,45.1,40.6,29.72,ESE,123,0.0,0.0,84,0.00,,CLR,0.00,0.00,VWS V14.01,2013-02-14 04:55:00,
2013-02-13 20:58:00,44.9,40.4,29.72,ESE,123,0.0,0.0,84,0.00,,CLR,0.00,0.00,VWS V14.01,2013-02-14 04:58:00,
2013-02-13 20:59:00,44.9,40.4,29.72,ESE,123,0.0,0.0,84,0.00,,CLR,0.00,0.00,VWS V14.01,2013-02-14 04:59:00,
2013-02-13 21:00:00,44.9,40.4,29.72,ESE,123,0.0,0.0,84,0.00,,CLR,0.00,0.00,VWS V14.01,2013-02-14 05:00:00,
2013-02-13 21:05:00,44.6,40.1,29.72,ESE,123,0.0,0.0,84,0.00,,CLR,0.00,0.00,VWS V14.01,2013-02-14 05:05:00,
2013-02-13 21:10:00,44.4,39.9,29.72,ESE,123,0.0,0.0,84,0.00,,CLR,0.00,0.00,VWS V14.01,2013-02-14 05:10:00,
2013-02-13 21:15:00,44.2,39.7,29.72,ESE,123,0.0,0.0,84,0.00,,CLR,0.00,0.00,VWS V14.01,2013-02-14 05:15:00,
2013-02-13 21:20:00,43.9,39.7,29.72,ESE,123,0.0,0.0,85,0.00,,CLR,0.00,0.00,VWS V14.01,2013-02-14 05:20:00,
2013-02-13 21:25:00,43.7,39.8,29.72,ESE,123,0.0,0.0,86,0.00,,CLR,0.00,0.00,VWS V14.01,2013-02-14 05:25:00,
2013-02-13 21:26:00,43.7,39.8,29.72,ESE,123,0.0,0.0,86,0.00,,CLR,0.00,0.00,VWS V14.01,2013-02-14 05:26:00,
2013-02-13 21:30:00,43.5,39.6,29.72,ESE,123,0.0,0.0,86,0.00,,CLR,0.00,0.00,VWS V14.01,2013-02-14 05:30:00,
2013-02-13 21:31:00,43.5,39.6,29.72,ESE,123,0.0,0.0,86,0.00,,CLR,0.00,0.00,VWS V14.01,2013-02-14 05:31:00,
2013-02-13 21:35:00,43.3,39.4,29.72,ESE,123,0.0,0.0,86,0.00,,CLR,0.00,0.00,VWS V14.01,2013-02-14 05:35:00,
2013-02-13 21:36:00,43.3,39.4,29.72,ESE,123,0.0,0.0,86,0.00,,CLR,0.00,0.00,VWS V14.01,2013-02-14 05:36:00,
2013-02-13 21:40:00,43.2,39.3,29.72,ESE,123,0.0,0.0,86,0.00,,CLR,0.00,0.00,VWS V14.01,2013-02-14 05:40:00,
2013-02-13 21:41:00,43.2,39.3,29.72,ESE,123,0.0,0.0,86,0.00,,CLR,0.00,0.00,VWS V14.01,2013-02-14 05:41:00,
2013-02-13 21:45:00,43.0,39.1,29.72,ESE,123,0.0,0.0,86,0.00,,CLR,0.00,0.00,VWS V14.01,2013-02-14 05:45:00,
2013-02-13 21:46:00,43.0,39.1,29.72,ESE,123,0.0,0.0,86,0.00,,CLR,0.00,0.00,VWS V14.01,2013-02-14 05:46:00,
2013-02-13 21:50:00,42.8,39.2,29.72,ESE,123,0.0,0.0,87,0.00,,CLR,0.00,0.00,VWS V14.01,2013-02-14 05:50:00,
2013-02-13 21:51:00,42.8,39.2,29.72,ESE,123,0.0,0.0,87,0.00,,CLR,0.00,0.00,VWS V14.01,2013-02-14 05:51:00,
2013-02-13 21:55:00,42.7,39.1,29.72,ESE,123,0.0,0.0,87,0.00,,CLR,0.00,0.00,VWS V14.01,2013-02-14 05:55:00,
2013-02-13 21:56:00,42.7,39.1,29.72,ESE,123,0.0,0.0,87,0.00,,CLR,0.00,0.00,VWS V14.01,2013-02-14 05:56:00,
2013-02-13 22:00:00,41.3,38.3,29.72,ESE,123,0.0,0.0,89,0.00,,CLR,0.00,0.00,VWS V14.01,2013-02-14 06:00:00,
2013-02-13 22:01:00,42.6,39.3,29.72,ESE,123,0.0,0.0,88,0.00,,CLR,0.00,0.00,VWS V14.01,2013-02-14 06:01:00,
2013-02-13 22:06:00,42.6,39.3,29.72,ESE,123,0.0,0.0,88,0.00,,CLR,0.00,0.00,VWS V14.01,2013-02-14 06:06:00,
2013-02-13 22:07:00,42.5,39.2,29.72,ESE,123,0.0,0.0,88,0.00,,CLR,0.00,0.00,VWS V14.01,2013-02-14 06:07:00,
2013-02-13 22:10:00,41.0,38.0,29.72,ESE,123,0.0,0.0,89,0.00,,CLR,0.00,0.00,VWS V14.01,2013-02-14 06:10:00,
2013-02-13 22:11:00,42.5,39.2,29.72,ESE,123,0.0,0.0,88,0.00,,CLR,0.00,0.00,VWS V14.01,2013-02-14 06:11:00,
2013-02-13 22:12:00,42.5,39.2,29.72,ESE,123,0.0,0.0,88,0.00,,CLR,0.00,0.00,VWS V14.01,2013-02-14 06:12:00,
2013-02-13 22:16:00,42.4,38.8,29.72,ESE,123,0.0,0.0,87,0.00,,CLR,0.00,0.00,VWS V14.01,2013-02-14 06:16:00,
2013-02-13 22:17:00,42.4,38.8,29.72,ESE,123,0.0,0.0,87,0.00,,CLR,0.00,0.00,VWS V14.01,2013-02-14 06:17:00,
2013-02-13 22:20:00,40.6,37.6,29.72,ESE,123,0.0,1.0,89,0.00,,CLR,0.00,0.00,VWS V14.01,2013-02-14 06:20:00,
2013-02-13 22:21:00,42.3,39.0,29.72,ESE,123,0.0,0.0,88,0.00,,CLR,0.00,0.00,VWS V14.01,2013-02-14 06:21:00,
2013-02-13 22:22:00,42.3,39.0,29.72,ESE,123,0.0,0.0,88,0.00,,CLR,0.00,0.00,VWS V14.01,2013-02-14 06:22:00,
2013-02-13 22:26:00,42.1,38.8,29.73,ESE,123,0.0,0.0,88,0.00,,CLR,0.00,0.00,VWS V14.01,2013-02-14 06:26:00,
2013-02-13 22:27:00,42.1,38.8,29.72,ESE,123,0.0,0.0,88,0.00,,CLR,0.00,0.00,VWS V14.01,2013-02-14 06:27:00,
2013-02-13 22:30:00,40.2,37.5,29.72,ESE,123,0.0,0.0,90,0.00,,CLR,0.00,0.00,VWS V14.01,2013-02-14 06:30:00,
2013-02-13 22:31:00,42.0,38.7,29.72,ESE,123,0.0,0.0,88,0.00,,CLR,0.00,0.00,VWS V14.01,2013-02-14 06:31:00,
2013-02-13 22:32:00,41.9,38.6,29.72,ESE,123,0.0,0.0,88,0.00,,CLR,0.00,0.00,VWS V14.01,2013-02-14 06:32:00,
2013-02-13 22:36:00,41.8,38.8,29.72,ESE,123,0.0,0.0,89,0.00,,CLR,0.00,0.00,VWS V14.01,2013-02-14 06:36:00,
2013-02-13 22:37:00,41.8,38.8,29.72,ESE,123,0.0,1.0,89,0.00,,CLR,0.00,0.00,VWS V14.01,2013-02-14 06:37:00,
2013-02-13 22:40:00,40.0,37.3,29.71,ESE,123,0.0,0.0,90,0.00,,CLR,0.00,0.00,VWS V14.01,2013-02-14 06:40:00,
2013-02-13 22:41:00,41.7,38.7,29.72,ESE,123,0.0,0.0,89,0.00,,CLR,0.00,0.00,VWS V14.01,2013-02-14 06:41:00,
2013-02-13 22:42:00,41.7,38.7,29.72,ESE,123,0.0,0.0,89,0.00,,CLR,0.00,0.00,VWS V14.01,2013-02-14 06:42:00,
2013-02-13 22:46:00,41.6,38.6,29.72,ESE,123,0.0,0.0,89,0.00,,CLR,0.00,0.00,VWS V14.01,2013-02-14 06:46:00,
2013-02-13 22:47:00,41.6,38.6,29.72,ESE,123,0.0,0.0,89,0.00,,CLR,0.00,0.00,VWS V14.01,2013-02-14 06:47:00,
2013-02-13 22:50:00,39.8,37.1,29.71,ESE,123,0.0,0.0,90,0.00,,CLR,0.00,0.00,VWS V14.01,2013-02-14 06:50:00,
2013-02-13 22:51:00,41.5,38.2,29.72,ESE,123,0.0,0.0,88,0.00,,CLR,0.00,0.00,VWS V14.01,2013-02-14 06:51:00,
2013-02-13 22:52:00,41.5,38.2,29.72,ESE,123,0.0,0.0,88,0.00,,CLR,0.00,0.00,VWS V14.01,2013-02-14 06:52:00,
2013-02-13 22:57:00,41.4,38.1,29.72,ESE,123,0.0,0.0,88,0.00,,CLR,0.00,0.00,VWS V14.01,2013-02-14 06:57:00,
2013-02-13 23:00:00,39.5,36.8,29.71,ESE,123,0.0,0.0,90,0.00,,CLR,0.00,0.00,VWS V14.01,2013-02-14 07:00:00,
2013-02-13 23:02:00,41.3,38.3,29.72,ESE,123,0.0,0.0,89,0.00,,CLR,0.00,0.00,VWS V14.01,2013-02-14 07:02:00,
2013-02-13 23:07:00,41.1,38.1,29.72,ESE,123,0.0,0.0,89,0.00,,CLR,0.00,0.00,VWS V14.01,2013-02-14 07:07:00,
2013-02-13 23:08:00,41.1,38.1,29.72,ESE,123,0.0,0.0,89,0.00,,CLR,0.00,0.00,VWS V14.01,2013-02-14 07:08:00,
2013-02-13 23:10:00,39.4,37.0,29.71,ESE,123,0.0,1.0,91,0.00,,CLR,0.00,0.00,VWS V14.01,2013-02-14 07:10:00,
2013-02-13 23:12:00,40.9,37.9,29.72,ESE,123,0.0,0.0,89,0.00,,CLR,0.00,0.00,VWS V14.01,2013-02-14 07:12:00,
2013-02-13 23:13:00,40.9,37.9,29.72,ESE,123,0.0,0.0,89,0.00,,CLR,0.00,0.00,VWS V14.01,2013-02-14 07:13:00,
2013-02-13 23:17:00,40.7,37.7,29.72,ESE,123,0.0,1.0,89,0.00,,CLR,0.00,0.00,VWS V14.01,2013-02-14 07:17:00,
2013-02-13 23:18:00,40.7,37.7,29.72,ESE,123,0.0,1.0,89,0.00,,CLR,0.00,0.00,VWS V14.01,2013-02-14 07:18:00,
2013-02-13 23:20:00,39.4,37.0,29.71,ESE,123,0.0,0.0,91,0.00,,CLR,0.00,0.00,VWS V14.01,2013-02-14 07:20:00,
2013-02-13 23:22:00,40.5,37.5,29.72,ESE,123,0.0,0.0,89,0.00,,CLR,0.00,0.00,VWS V14.01,2013-02-14 07:22:00,
2013-02-13 23:23:00,40.5,37.5,29.72,ESE,123,0.0,0.0,89,0.00,,CLR,0.00,0.00,VWS V14.01,2013-02-14 07:23:00,
2013-02-13 23:27:00,40.3,37.6,29.72,ESE,123,0.0,0.0,90,0.00,,CLR,0.00,0.00,VWS V14.01,2013-02-14 07:27:00,
2013-02-13 23:28:00,40.3,37.6,29.72,ESE,123,0.0,0.0,90,0.00,,CLR,0.00,0.00,VWS V14.01,2013-02-14 07:28:00,
2013-02-13 23:30:00,39.3,36.9,29.72,ESE,123,0.0,0.0,91,0.00,,CLR,0.00,0.00,VWS V14.01,2013-02-14 07:30:00,
2013-02-13 23:32:00,40.1,37.4,29.72,ESE,123,0.0,0.0,90,0.00,,CLR,0.00,0.00,VWS V14.01,2013-02-14 07:32:00,
2013-02-13 23:33:00,40.1,37.4,29.72,ESE,123,0.0,0.0,90,0.00,,CLR,0.00,0.00,VWS V14.01,2013-02-14 07:33:00,
2013-02-13 23:38:00,40.0,37.3,29.71,ESE,123,0.0,0.0,90,0.00,,CLR,0.00,0.00,VWS V14.01,2013-02-14 07:38:00,
2013-02-13 23:40:00,39.1,36.7,29.71,ESE,123,0.0,0.0,91,0.00,,CLR,0.00,0.00,VWS V14.01,2013-02-14 07:40:00,
2013-02-13 23:43:00,39.9,37.2,29.71,ESE,123,0.0,0.0,90,0.00,,CLR,0.00,0.00,VWS V14.01,2013-02-14 07:43:00,
2013-02-13 23:48:00,39.8,37.1,29.71,ESE,123,0.0,0.0,90,0.00,,CLR,0.00,0.00,VWS V14.01,2013-02-14 07:48:00,
2013-02-13 23:50:00,38.8,36.4,29.71,ESE,123,0.0,0.0,91,0.00,,CLR,0.00,0.00,VWS V14.01,2013-02-14 07:50:00,
2013-02-13 23:53:00,39.7,37.0,29.71,ESE,123,0.0,0.0,90,0.00,,CLR,0.00,0.00,VWS V14.01,2013-02-14 07:53:00,
2013-02-13 23:54:00,39.7,37.0,29.71,ESE,123,0.0,0.0,90,0.00,,CLR,0.00,0.00,VWS V14.01,2013-02-14 07:54:00,
2013-02-13 23:58:00,39.5,36.8,29.71,ESE,123,0.0,0.0,90,0.00,,CLR,0.00,0.00,VWS V14.01,2013-02-14 07:58:00,
2013-02-13 23:59:00,39.5,36.8,29.71,ESE,123,0.0,0.0,90,0.00,,CLR,0.00,0.00,VWS V14.01,2013-02-14 07:59:00,